M I D A S
Marine Information and Data Acquisition System
Tripno 1665 of the Zeeleeuw from 2009-03-26 07:33:00 to 2009-03-26 15:56:00
Back to CruiseResearch ActivitiesStationsMapUnderway DataData graphs

EquipmentUnitsComment
TimeDGPSUTC
LatitudeDGPSDM.mWGS84
LongitudeDGPSDM.mWGS84
TemperatureSBE03/SBE38deg celciusITS90
ConductivitySBE21S/mITS90
SalinitySBE21 Practical Salinity Units
ChlorophylAChelsea fluorimeterg/lCalibrated in Aceton
Missing or incorrect values are displayed as -999
Sea surface data collected by the RV Zeeleeuw from 2009-03-26 07:33:22 to 2009-03-26 15:56:01
                                                                                    Next 1000 lines
Time Latitude Longitude Temperature Conductivity Salinity ChlorophylA
2009-03-26 07:33:32 51°13.664 2°55.953 -999 0.115585 0.680858 -0.826448
2009-03-26 07:33:37 51°13.665 2°55.949 -999 0.115483 0.680264 -0.791624
2009-03-26 07:33:42 51°13.667 2°55.944 -999 0.115585 0.680923 -0.896096
2009-03-26 07:33:47 51°13.668 2°55.938 -999 0.115483 0.680303 -0.721976
2009-03-26 07:33:52 51°13.67 2°55.933 -999 0.115483 0.680303 -0.721976
2009-03-26 07:33:57 51°13.672 2°55.928 -999 0.115483 0.680369 -0.896096
2009-03-26 07:34:02 51°13.674 2°55.922 -999 0.115585 0.68095 -0.7568
2009-03-26 07:34:07 51°13.676 2°55.916 -999 0.115483 0.680382 -0.861272
2009-03-26 07:34:12 51°13.678 2°55.911 -999 0.115585 0.681002 -0.861272
2009-03-26 07:34:17 51°13.679 2°55.905 -999 0.115483 0.680395 -0.861272
2009-03-26 07:34:22 51°13.681 2°55.898 -999 0.115483 0.680395 -0.861272
2009-03-26 07:34:27 51°13.683 2°55.892 -999 0.115585 0.681002 -0.861272
2009-03-26 07:34:32 51°13.684 2°55.885 -999 0.115585 0.680989 -0.826448
2009-03-26 07:34:37 51°13.686 2°55.878 -999 0.115585 0.681002 -0.861272
2009-03-26 07:34:42 51°13.688 2°55.871 -999 0.115585 0.681015 -0.861272
2009-03-26 07:34:47 51°13.689 2°55.865 -999 0.115585 0.681055 -0.861272
2009-03-26 07:34:52 51°13.691 2°55.858 -999 0.115585 0.681055 -0.861272
2009-03-26 07:34:57 51°13.692 2°55.851 -999 0.115585 0.681055 -0.826448
2009-03-26 07:35:02 51°13.693 2°55.844 -999 0.115585 0.681094 -0.861272
2009-03-26 07:35:07 51°13.694 2°55.837 -999 0.115585 0.681107 -0.861272
2009-03-26 07:35:12 51°13.695 2°55.83 -999 0.115585 0.68112 -0.826448
2009-03-26 07:35:17 51°13.696 2°55.823 -999 0.115585 0.681146 -0.861272
2009-03-26 07:35:22 51°13.696 2°55.817 -999 0.115585 0.681146 -0.861272
2009-03-26 07:35:27 51°13.697 2°55.81 -999 0.115585 0.681146 -0.826448
2009-03-26 07:35:32 51°13.698 2°55.804 -999 0.115585 0.681186 -0.861272
2009-03-26 07:35:37 51°13.698 2°55.798 -999 0.115585 0.681173 -0.861272
2009-03-26 07:35:42 51°13.698 2°55.792 -999 0.115585 0.681199 -0.826448
2009-03-26 07:35:47 51°13.698 2°55.786 -999 0.115585 0.681225 -0.861272
2009-03-26 07:35:52 51°13.698 2°55.781 -999 0.115585 0.681225 -0.861272
2009-03-26 07:35:57 51°13.698 2°55.776 -999 0.115585 0.681238 -0.826448
2009-03-26 07:36:02 51°13.698 2°55.771 -999 0.115585 0.681265 -0.861272
2009-03-26 07:36:06 51°13.698 2°55.768 -999 0.115585 0.681344 -0.965744
2009-03-26 07:36:11 51°13.698 2°55.766 -999 0.115585 0.681357 -0.826448
2009-03-26 07:36:17 51°13.698 2°55.765 -999 0.115585 0.681357 -0.896096
2009-03-26 07:36:22 51°13.699 2°55.764 -999 0.115585 0.681357 -0.896096
2009-03-26 07:36:27 51°13.7 2°55.764 -999 0.115585 0.681317 -0.791624
2009-03-26 07:36:32 51°13.7 2°55.763 -999 0.115585 0.68133 -0.861272
2009-03-26 07:36:37 51°13.701 2°55.763 -999 0.115585 0.681317 -0.826448
2009-03-26 07:36:42 51°13.702 2°55.763 -999 0.115585 0.681344 -0.826448
2009-03-26 07:36:47 51°13.703 2°55.763 -999 0.115585 0.681357 -0.861272
2009-03-26 07:36:52 51°13.704 2°55.762 -999 0.115585 0.681357 -0.861272
2009-03-26 07:36:57 51°13.705 2°55.762 -999 0.115585 0.681317 -0.7568
2009-03-26 07:37:02 51°13.705 2°55.762 -999 0.115585 0.68133 -0.826448
2009-03-26 07:37:07 51°13.706 2°55.761 -999 0.115585 0.68133 -0.826448
2009-03-26 07:37:12 51°13.706 2°55.76 -999 0.115585 0.68133 -0.791624
2009-03-26 07:37:17 51°13.706 2°55.759 -999 0.115585 0.681344 -0.826448
2009-03-26 07:37:22 51°13.706 2°55.758 -999 0.115585 0.681344 -0.826448
2009-03-26 07:37:27 51°13.705 2°55.757 -999 0.115585 0.681344 -0.826448
2009-03-26 07:37:32 51°13.705 2°55.755 -999 0.115585 0.681357 -0.861272
2009-03-26 07:37:37 51°13.704 2°55.754 -999 0.115585 0.681357 -0.7568
2009-03-26 07:37:42 51°13.704 2°55.753 -999 0.115688 0.682029 -0.826448
2009-03-26 07:37:47 51°13.703 2°55.752 -999 0.115688 0.682043 -0.826448
2009-03-26 07:37:51 51°13.703 2°55.751 -999 0.115688 0.682043 -0.826448
2009-03-26 07:37:57 51°13.703 2°55.751 -999 0.115688 0.682148 -0.965744
2009-03-26 07:38:01 51°13.704 2°55.75 -999 0.115688 0.682095 -0.791624
2009-03-26 07:38:06 51°13.705 2°55.75 -999 0.115688 0.682161 -0.861272
2009-03-26 07:38:11 51°13.706 2°55.749 -999 0.115688 0.682122 -0.826448
2009-03-26 07:38:15 51°13.708 2°55.748 -999 0.115688 0.682135 -0.7568
2009-03-26 07:38:21 51°13.71 2°55.746 -999 0.115688 0.682135 -0.7568
2009-03-26 07:38:26 51°13.712 2°55.744 -999 0.115688 0.682148 -0.791624
2009-03-26 07:38:31 51°13.715 2°55.741 -999 0.115688 0.682095 -0.687152
2009-03-26 07:38:36 51°13.719 2°55.737 -999 0.115688 0.682095 -0.652328
2009-03-26 07:38:42 51°13.724 2°55.731 -999 0.115688 0.682069 -0.687152
2009-03-26 07:38:47 51°13.73 2°55.726 -999 0.115688 0.682161 -0.826448
2009-03-26 07:38:52 51°13.736 2°55.719 -999 0.115688 0.682161 -0.826448
2009-03-26 07:38:57 51°13.742 2°55.713 -999 0.115688 0.682161 -0.826448
2009-03-26 07:39:02 51°13.749 2°55.706 -999 0.115688 0.682174 -0.687152
2009-03-26 07:39:06 51°13.755 2°55.7 -999 0.115688 0.682161 -0.791624
2009-03-26 07:39:11 51°13.763 2°55.693 -999 0.115688 0.682135 -0.687152
2009-03-26 07:39:16 51°13.771 2°55.685 -999 0.115688 0.682148 -0.826448
2009-03-26 07:39:21 51°13.779 2°55.677 -999 0.115688 0.682148 -0.826448
2009-03-26 07:39:26 51°13.788 2°55.67 -999 0.115688 0.682201 -0.861272
2009-03-26 07:39:30 51°13.795 2°55.663 -999 0.115688 0.682187 -0.791624
2009-03-26 07:39:35 51°13.804 2°55.656 -999 0.115688 0.682187 -0.721976
2009-03-26 07:39:40 51°13.813 2°55.648 -999 0.115688 0.682201 -0.826448
2009-03-26 07:39:44 51°13.821 2°55.643 -999 0.115688 0.68224 -0.791624
2009-03-26 07:39:50 51°13.833 2°55.634 -999 0.115688 0.68224 -0.791624
2009-03-26 07:39:54 51°13.84 2°55.628 -999 0.115688 0.68224 -0.791624
2009-03-26 07:39:59 51°13.85 2°55.62 -999 0.115688 0.682201 -0.687152
2009-03-26 07:40:03 51°13.858 2°55.614 -999 0.115688 0.68224 -0.7568
2009-03-26 07:40:08 51°13.868 2°55.606 -999 0.115688 0.682266 -0.791624
2009-03-26 07:40:14 51°13.88 2°55.597 -999 0.115688 0.682253 -0.687152
2009-03-26 07:40:18 51°13.889 2°55.591 -999 0.115688 0.682253 -0.687152
2009-03-26 07:40:23 51°13.899 2°55.582 -999 0.115688 0.682266 -0.826448
2009-03-26 07:40:28 51°13.91 2°55.574 -999 0.115688 0.682293 -0.687152
2009-03-26 07:40:34 51°13.923 2°55.564 -999 0.115688 0.682319 -0.861272
2009-03-26 07:40:38 51°13.931 2°55.558 -999 0.115688 0.682359 -0.791624
2009-03-26 07:40:43 51°13.942 2°55.55 -999 0.115688 0.682372 -0.826448
2009-03-26 07:40:49 51°13.956 2°55.541 -999 0.115688 0.682372 -0.826448
2009-03-26 07:40:53 51°13.965 2°55.535 -999 0.115688 0.682332 -0.687152
2009-03-26 07:40:58 51°13.976 2°55.527 -999 0.115688 0.682411 -0.896096
2009-03-26 07:41:03 51°13.987 2°55.518 -999 0.115688 0.682385 -0.687152
2009-03-26 07:41:09 51°14 2°55.508 -999 0.115688 0.682385 -0.826448
2009-03-26 07:41:13 51°14.009 2°55.502 -999 0.115688 0.682438 -0.826448
2009-03-26 07:41:18 51°14.02 2°55.494 -999 0.115688 0.682438 -0.826448
2009-03-26 07:41:22 51°14.029 2°55.487 -999 0.115688 0.682411 -0.652328
2009-03-26 07:41:28 51°14.043 2°55.477 -999 0.115688 0.682464 -0.896096
2009-03-26 07:41:34 51°14.056 2°55.467 -999 0.115688 0.682477 -0.791624
2009-03-26 07:41:39 51°14.068 2°55.459 -999 0.115688 0.682424 -0.652328
2009-03-26 07:41:44 51°14.079 2°55.451 -999 0.115688 0.682503 -0.861272
2009-03-26 07:41:50 51°14.093 2°55.441 -999 0.115688 0.682503 -0.861272
2009-03-26 07:41:54 51°14.102 2°55.434 -999 0.115688 0.68249 -0.721976
2009-03-26 07:41:59 51°14.113 2°55.425 -999 0.115688 0.682503 -0.7568
2009-03-26 07:42:04 51°14.124 2°55.416 -999 0.115688 0.68249 -0.791624
2009-03-26 07:42:09 51°14.135 2°55.407 -999 0.115688 0.682543 -0.721976
2009-03-26 07:42:15 51°14.148 2°55.396 -999 0.115688 0.682556 -0.791624
2009-03-26 07:42:20 51°14.159 2°55.387 -999 0.115688 0.682556 -0.791624
2009-03-26 07:42:25 51°14.17 2°55.377 -999 0.115688 0.682596 -0.721976
2009-03-26 07:42:30 51°14.18 2°55.366 -999 0.115688 0.682583 -0.721976
2009-03-26 07:42:35 51°14.19 2°55.355 -999 0.115688 0.682596 -0.721976
2009-03-26 07:42:41 51°14.202 2°55.341 -999 0.115688 0.682596 -0.721976
2009-03-26 07:42:46 51°14.212 2°55.33 -999 0.115688 0.682688 -0.826448
2009-03-26 07:42:51 51°14.222 2°55.318 -999 0.115688 0.682688 -0.826448
2009-03-26 07:42:56 51°14.232 2°55.306 -999 0.115688 0.682688 -0.7568
2009-03-26 07:43:01 51°14.241 2°55.293 -999 0.115688 0.682662 -0.687152
2009-03-26 07:43:06 51°14.25 2°55.28 -999 0.115688 0.682714 -0.7568
2009-03-26 07:43:10 51°14.258 2°55.269 -999 0.115688 0.682767 -0.791624
2009-03-26 07:43:15 51°14.267 2°55.256 -999 0.115688 0.682728 -0.687152
2009-03-26 07:43:20 51°14.275 2°55.242 -999 0.115688 0.682728 -0.687152
2009-03-26 07:43:25 51°14.284 2°55.227 -999 0.115688 0.682714 -0.652328
2009-03-26 07:43:30 51°14.292 2°55.213 -999 0.115791 0.683362 -0.7568
2009-03-26 07:43:34 51°14.299 2°55.201 -999 0.115688 0.682833 -0.826448
2009-03-26 07:43:39 51°14.307 2°55.187 -999 0.115791 0.68348 -0.826448
2009-03-26 07:43:44 51°14.316 2°55.173 -999 0.115791 0.683428 -0.687152
2009-03-26 07:43:49 51°14.325 2°55.158 -999 0.115791 0.683428 -0.687152
2009-03-26 07:43:54 51°14.333 2°55.144 -999 0.115791 0.68352 -0.861272
2009-03-26 07:43:58 51°14.34 2°55.132 -999 0.115791 0.68348 -0.652328
2009-03-26 07:44:03 51°14.348 2°55.117 -999 0.115791 0.683533 -0.687152
2009-03-26 07:44:09 51°14.358 2°55.099 -999 0.115791 0.683533 -0.652328
2009-03-26 07:44:14 51°14.366 2°55.083 -999 0.115791 0.68352 -0.826448
2009-03-26 07:44:18 51°14.372 2°55.071 -999 0.115791 0.68352 -0.826448
2009-03-26 07:44:23 51°14.38 2°55.055 -999 0.115791 0.683586 -0.687152
2009-03-26 07:44:28 51°14.388 2°55.039 -999 0.115791 0.683586 -0.687152
2009-03-26 07:44:34 51°14.397 2°55.02 -999 0.115791 0.683494 -0.547855
2009-03-26 07:44:38 51°14.403 2°55.007 -999 0.115791 0.683494 -1.174688
2009-03-26 07:44:42 51°14.409 2°54.993 -999 0.115791 0.683507 -1.244337
2009-03-26 07:44:49 51°14.42 2°54.97 -999 0.115791 0.683507 -1.244337
2009-03-26 07:44:54 51°14.428 2°54.954 -999 0.115791 0.68356 -1.244337
2009-03-26 07:44:58 51°14.435 2°54.942 -999 0.115791 0.683613 -1.279161
2009-03-26 07:45:03 51°14.444 2°54.927 -999 0.115791 0.683665 -1.313985
2009-03-26 07:45:08 51°14.454 2°54.913 -999 0.115791 0.683718 -1.209513
2009-03-26 07:45:14 51°14.465 2°54.895 -999 0.115791 0.683665 -1.209513
2009-03-26 07:45:18 51°14.472 2°54.883 -999 0.115791 0.683665 -1.209513
2009-03-26 07:45:23 51°14.482 2°54.868 -999 0.115791 0.683652 -1.313985
2009-03-26 07:45:28 51°14.492 2°54.853 -999 0.115791 0.683639 -0.617504
2009-03-26 07:45:33 51°14.501 2°54.837 -999 0.115894 0.6843 -1.244337
2009-03-26 07:45:38 51°14.51 2°54.821 -999 0.115894 0.684287 -1.174688
2009-03-26 07:45:43 51°14.519 2°54.804 -999 0.115894 0.684287 -1.209513
2009-03-26 07:45:49 51°14.53 2°54.784 -999 0.115894 0.684287 -1.209513
2009-03-26 07:45:54 51°14.539 2°54.767 -999 0.115894 0.6843 -1.139864
2009-03-26 07:45:58 51°14.546 2°54.753 -999 0.115894 0.684326 -1.209513
2009-03-26 07:46:03 51°14.555 2°54.736 -999 0.115894 0.684406 -1.244337
2009-03-26 07:46:08 51°14.564 2°54.718 -999 0.115894 0.684445 -1.209513
2009-03-26 07:46:14 51°14.575 2°54.697 -999 0.115894 0.684498 -1.244337
2009-03-26 07:46:18 51°14.582 2°54.683 -999 0.115894 0.684498 -1.244337
2009-03-26 07:46:23 51°14.592 2°54.665 -999 0.115894 0.684498 -1.244337
2009-03-26 07:46:29 51°14.603 2°54.643 -999 0.115894 0.684472 -1.209513
2009-03-26 07:46:34 51°14.612 2°54.625 -999 0.115894 0.684459 -1.279161
2009-03-26 07:46:38 51°14.619 2°54.611 -999 0.115894 0.684472 -1.174688
2009-03-26 07:46:43 51°14.629 2°54.592 -999 0.115894 0.684459 -1.209513
2009-03-26 07:46:49 51°14.64 2°54.57 -999 0.115894 0.684459 -1.209513
2009-03-26 07:46:54 51°14.65 2°54.551 -999 0.115894 0.684432 -1.209513
2009-03-26 07:46:58 51°14.657 2°54.537 -999 0.115894 0.684472 -1.279161
2009-03-26 07:47:03 51°14.667 2°54.518 -999 0.115894 0.684525 -1.209513
2009-03-26 07:47:08 51°14.676 2°54.5 -999 0.115894 0.684445 -1.244337
2009-03-26 07:47:14 51°14.688 2°54.477 -999 0.115894 0.684459 -1.244337
2009-03-26 07:47:18 51°14.696 2°54.462 -999 0.115894 0.684459 -1.244337
2009-03-26 07:47:23 51°14.705 2°54.443 -999 0.115894 0.684525 -1.244337
2009-03-26 07:47:28 51°14.715 2°54.424 -999 0.115894 0.684564 -1.279161
2009-03-26 07:47:33 51°14.725 2°54.404 -999 0.115894 0.684604 -1.279161
2009-03-26 07:47:38 51°14.735 2°54.385 -999 0.115894 0.684631 -1.209513
2009-03-26 07:47:42 51°14.743 2°54.369 -999 0.115894 0.68467 -0.547855
2009-03-26 07:47:49 51°14.757 2°54.341 -999 0.115894 0.68467 -0.547855
2009-03-26 07:47:54 51°14.766 2°54.32 -999 0.115894 0.68467 -1.209513
2009-03-26 07:47:58 51°14.774 2°54.303 -999 0.115997 0.685292 -1.209513
2009-03-26 07:48:03 51°14.784 2°54.281 -999 0.115894 0.684763 -1.244337
2009-03-26 07:48:09 51°14.796 2°54.256 -999 0.115997 0.685371 -1.244337
2009-03-26 07:48:13 51°14.805 2°54.239 -999 0.115997 0.685385 -1.244337
2009-03-26 07:48:18 51°14.815 2°54.218 -999 0.115997 0.685385 -1.244337
2009-03-26 07:48:23 51°14.825 2°54.197 -999 0.115894 0.684736 -1.174688
2009-03-26 07:48:29 51°14.837 2°54.17 -999 0.115997 0.685252 -0.443383
2009-03-26 07:48:33 51°14.844 2°54.153 -999 0.115997 0.685265 -1.070216
2009-03-26 07:48:38 51°14.854 2°54.131 -999 0.115997 0.685279 -1.000568
2009-03-26 07:48:43 51°14.864 2°54.109 -999 0.115894 0.68475 -1.139864
2009-03-26 07:48:49 51°14.876 2°54.083 -999 0.115894 0.68475 -1.139864
2009-03-26 07:48:54 51°14.885 2°54.061 -999 0.115997 0.685385 -1.10504
2009-03-26 07:48:58 51°14.893 2°54.044 -999 0.115997 0.685438 -1.10504
2009-03-26 07:49:02 51°14.9 2°54.026 -999 0.115997 0.685424 -1.174688
2009-03-26 07:49:09 51°14.914 2°53.995 -999 0.115997 0.685424 -1.139864
2009-03-26 07:49:14 51°14.924 2°53.974 -999 0.115997 0.685411 -1.139864
2009-03-26 07:49:18 51°14.932 2°53.956 -999 0.115997 0.685411 -1.139864
2009-03-26 07:49:23 51°14.942 2°53.935 -999 0.115997 0.685477 -1.139864
2009-03-26 07:49:28 51°14.952 2°53.914 -999 0.115997 0.685504 -1.070216
2009-03-26 07:49:34 51°14.964 2°53.888 -999 0.115997 0.685517 -1.035392
2009-03-26 07:49:38 51°14.973 2°53.871 -999 0.115997 0.68553 -0.826448
2009-03-26 07:49:43 51°14.983 2°53.85 -999 0.115997 0.685597 -1.139864
2009-03-26 07:49:48 51°14.993 2°53.828 -999 0.115997 0.685597 -1.139864
2009-03-26 07:49:53 51°15.003 2°53.807 -999 0.115997 0.685663 -1.139864
2009-03-26 07:49:58 51°15.014 2°53.786 -999 0.115997 0.685663 -1.070216
2009-03-26 07:50:03 51°15.024 2°53.764 -999 0.115997 0.685676 -1.139864
2009-03-26 07:50:09 51°15.036 2°53.739 -999 0.115997 0.685676 -1.070216
2009-03-26 07:50:13 51°15.045 2°53.721 -999 0.115997 0.685663 -0.896096
2009-03-26 07:50:18 51°15.055 2°53.7 -999 0.115997 0.685663 -0.896096
2009-03-26 07:50:23 51°15.065 2°53.678 -999 0.115997 0.68565 -0.93092
2009-03-26 07:50:29 51°15.077 2°53.652 -999 0.115997 0.68561 -1.070216
2009-03-26 07:50:33 51°15.085 2°53.635 -999 0.115997 0.68561 -1.139864
2009-03-26 07:50:38 51°15.096 2°53.614 -999 0.115997 0.685597 -0.478207
2009-03-26 07:50:42 51°15.104 2°53.597 -999 0.115997 0.685703 -1.10504
2009-03-26 07:50:49 51°15.118 2°53.567 -999 0.115997 0.685703 -1.10504
2009-03-26 07:50:54 51°15.128 2°53.545 -999 0.115997 0.685756 -1.035392
2009-03-26 07:50:58 51°15.137 2°53.528 -999 0.1161 0.686498 -1.10504
2009-03-26 07:51:03 51°15.147 2°53.507 -999 0.1161 0.686524 -1.10504
2009-03-26 07:51:09 51°15.159 2°53.481 -999 0.1161 0.686484 -1.10504
2009-03-26 07:51:13 51°15.168 2°53.464 -999 0.1161 0.686444 0.253098
2009-03-26 07:51:18 51°15.178 2°53.443 -999 0.1161 0.686444 0.253098
2009-03-26 07:51:23 51°15.189 2°53.421 -999 0.1161 0.686458 -1.139864
2009-03-26 07:51:28 51°15.199 2°53.4 -999 0.1161 0.686458 0.496866
2009-03-26 07:51:34 51°15.211 2°53.374 -999 0.1161 0.686498 -0.93092
2009-03-26 07:51:38 51°15.219 2°53.357 -999 0.1161 0.686577 -0.965744
2009-03-26 07:51:43 51°15.23 2°53.335 -999 0.1161 0.686564 0.078977
2009-03-26 07:51:49 51°15.242 2°53.309 -999 0.1161 0.686564 0.078977
2009-03-26 07:51:54 51°15.253 2°53.288 -999 0.1161 0.686591 -1.070216
2009-03-26 07:51:58 51°15.262 2°53.271 -999 0.1161 0.686604 -0.965744
2009-03-26 07:52:03 51°15.272 2°53.249 -999 0.1161 0.686617 -1.000568
2009-03-26 07:52:09 51°15.285 2°53.224 -999 0.1161 0.686657 -1.000568
2009-03-26 07:52:13 51°15.293 2°53.207 -999 0.1161 0.686657 -1.070216
2009-03-26 07:52:18 51°15.304 2°53.186 -999 0.1161 0.686657 -1.070216
2009-03-26 07:52:23 51°15.314 2°53.165 -999 0.1161 0.686604 -1.070216
2009-03-26 07:52:29 51°15.327 2°53.14 -999 0.1161 0.686577 -1.10504
2009-03-26 07:52:33 51°15.335 2°53.123 -999 0.1161 0.686604 -1.10504
2009-03-26 07:52:38 51°15.346 2°53.102 -999 0.1161 0.686617 -0.861272
2009-03-26 07:52:43 51°15.357 2°53.08 -999 0.1161 0.68667 -1.10504
2009-03-26 07:52:49 51°15.369 2°53.055 -999 0.1161 0.68667 -1.10504
2009-03-26 07:52:53 51°15.378 2°53.038 -999 0.1161 0.68675 -1.070216
2009-03-26 07:52:58 51°15.389 2°53.017 -999 0.1161 0.686777 -0.547855
2009-03-26 07:53:03 51°15.399 2°52.995 -999 0.1161 0.686843 -1.035392
2009-03-26 07:53:09 51°15.412 2°52.97 -999 0.1161 0.686803 -1.174688
2009-03-26 07:53:13 51°15.421 2°52.953 -999 0.1161 0.686843 -1.10504
2009-03-26 07:53:19 51°15.434 2°52.928 -999 0.1161 0.686843 -1.10504
2009-03-26 07:53:23 51°15.443 2°52.911 -999 0.1161 0.686817 -0.687152
2009-03-26 07:53:29 51°15.455 2°52.886 -999 0.1161 0.686764 -0.547855
2009-03-26 07:53:34 51°15.466 2°52.865 -999 0.116203 0.687412 -1.10504
2009-03-26 07:53:38 51°15.475 2°52.848 -999 0.116203 0.687426 -1.070216
2009-03-26 07:53:43 51°15.486 2°52.828 -999 0.115585 0.683281 -1.139864
2009-03-26 07:53:48 51°15.498 2°52.807 -999 0.115585 0.683281 -1.139864
2009-03-26 07:53:54 51°15.511 2°52.783 -999 0.053734 0.306873 -1.279161
2009-03-26 07:53:58 51°15.52 2°52.766 -999 0.00156 0.014624 -1.313985
2009-03-26 07:54:03 51°15.531 2°52.746 -999 0.001766 0.015568 -1.313985
2009-03-26 07:54:09 51°15.545 2°52.721 -999 0.001972 0.016529 -1.313985
2009-03-26 07:54:13 51°15.554 2°52.705 -999 0.001972 0.016523 -1.313985
2009-03-26 07:54:18 51°15.565 2°52.684 -999 0.001972 0.016523 -1.313985
2009-03-26 07:54:23 51°15.576 2°52.663 -999 0.002075 0.017008 -1.313985
2009-03-26 07:54:29 51°15.59 2°52.638 -999 0.002075 0.017005 -1.313985
2009-03-26 07:54:33 51°15.599 2°52.622 -999 0.002075 0.017003 -1.313985
2009-03-26 07:54:39 51°15.612 2°52.597 -999 0.002075 0.017001 -1.313985
2009-03-26 07:54:43 51°15.621 2°52.58 -999 0.002075 0.016999 -1.313985
2009-03-26 07:54:49 51°15.634 2°52.555 -999 0.002075 0.016999 -1.313985
2009-03-26 07:54:53 51°15.643 2°52.538 -999 0.002075 0.016997 -1.313985
2009-03-26 07:54:58 51°15.654 2°52.517 -999 0.002178 0.017489 -1.348809
2009-03-26 07:55:03 51°15.665 2°52.496 -999 0.002178 0.017488 -1.313985
2009-03-26 07:55:09 51°15.679 2°52.471 -999 0.002178 0.017487 -1.313985
2009-03-26 07:55:13 51°15.687 2°52.454 -999 0.002178 0.017486 -1.348809
2009-03-26 07:55:19 51°15.7 2°52.428 -999 0.002178 0.017486 -1.348809
2009-03-26 07:55:23 51°15.709 2°52.411 -999 0.002075 0.016992 -1.313985
2009-03-26 07:55:29 51°15.722 2°52.386 -999 0.002075 0.016991 -1.313985
2009-03-26 07:55:34 51°15.733 2°52.364 -999 0.002075 0.01699 -1.313985
2009-03-26 07:55:38 51°15.742 2°52.347 -999 0.002075 0.016989 -1.348809
2009-03-26 07:55:43 51°15.753 2°52.326 -999 0.001972 0.016497 -1.348809
2009-03-26 07:55:49 51°15.766 2°52.301 -999 0.001972 0.016497 -1.348809
2009-03-26 07:55:54 51°15.777 2°52.28 -999 0.001972 0.016496 -1.348809
2009-03-26 07:55:58 51°15.786 2°52.263 -999 0.001972 0.016496 -1.348809
2009-03-26 07:56:03 51°15.797 2°52.242 -999 0.001972 0.016495 -1.348809
2009-03-26 07:56:08 51°15.807 2°52.221 -999 0.001972 0.016495 -1.348809
2009-03-26 07:56:14 51°15.821 2°52.196 -999 0.001869 0.016005 -1.348809
2009-03-26 07:56:18 51°15.829 2°52.179 -999 0.001869 0.016005 -1.348809
2009-03-26 07:56:23 51°15.84 2°52.158 -999 0.001869 0.016005 -1.313985
2009-03-26 07:56:28 51°15.851 2°52.137 -999 0.001869 0.016004 -1.313985
2009-03-26 07:56:34 51°15.864 2°52.111 -999 0.001869 0.016003 -1.313985
2009-03-26 07:56:38 51°15.873 2°52.095 -999 0.001869 0.016003 -1.313985
2009-03-26 07:56:43 51°15.884 2°52.074 -999 0.001869 0.016002 -1.348809
2009-03-26 07:56:49 51°15.897 2°52.049 -999 0.001869 0.016002 -1.348809
2009-03-26 07:56:53 51°15.906 2°52.033 -999 0.001766 0.015515 -1.348809
2009-03-26 07:56:58 51°15.917 2°52.012 -999 0.001766 0.015514 -1.348809
2009-03-26 07:57:03 51°15.928 2°51.991 -999 0.001766 0.015513 -1.348809
2009-03-26 07:57:09 51°15.941 2°51.966 -999 0.001766 0.015512 -1.348809
2009-03-26 07:57:13 51°15.95 2°51.95 -999 0.001766 0.015511 -1.348809
2009-03-26 07:57:19 51°15.963 2°51.925 -999 0.001766 0.015511 -1.348809
2009-03-26 07:57:23 51°15.972 2°51.909 -999 0.001766 0.01551 -1.348809
2009-03-26 07:57:29 51°15.984 2°51.883 -999 0.001766 0.01551 -1.348809
2009-03-26 07:57:34 51°15.995 2°51.863 -999 0.001766 0.015509 -1.313985
2009-03-26 07:57:38 51°16.004 2°51.846 -999 0.001663 0.015025 -1.313985
2009-03-26 07:57:43 51°16.015 2°51.826 -999 0.001663 0.015024 -1.348809
2009-03-26 07:57:49 51°16.028 2°51.801 -999 0.001663 0.015024 -1.348809
2009-03-26 07:57:54 51°16.039 2°51.781 -999 0.001663 0.015023 -1.348809
2009-03-26 07:57:58 51°16.048 2°51.765 -999 0.001663 0.015022 -1.348809
2009-03-26 07:58:03 51°16.059 2°51.745 -999 0.001663 0.015021 -1.348809
2009-03-26 07:58:09 51°16.073 2°51.721 -999 0.001663 0.015021 -1.348809
2009-03-26 07:58:14 51°16.084 2°51.702 -999 0.001663 0.015019 -1.348809
2009-03-26 07:58:18 51°16.093 2°51.686 -999 0.001663 0.015019 -1.348809
2009-03-26 07:58:23 51°16.105 2°51.667 -999 0.001663 0.015019 -1.348809
2009-03-26 07:58:28 51°16.116 2°51.647 -999 0.001663 0.015018 -1.348809
2009-03-26 07:58:34 51°16.13 2°51.624 -999 0.001663 0.015017 -1.348809
2009-03-26 07:58:39 51°16.141 2°51.604 -999 0.001663 0.015016 -1.348809
2009-03-26 07:58:43 51°16.15 2°51.589 -999 0.001663 0.015015 -1.313985
2009-03-26 07:58:49 51°16.164 2°51.565 -999 0.001663 0.015015 -1.313985
2009-03-26 07:58:53 51°16.173 2°51.549 -999 0.00156 0.014534 -1.348809
2009-03-26 07:58:58 51°16.184 2°51.53 -999 0.00156 0.014533 -1.348809
2009-03-26 07:59:03 51°16.196 2°51.511 -999 0.00156 0.014532 -1.348809
2009-03-26 07:59:09 51°16.209 2°51.487 -999 0.00156 0.014531 -1.348809
2009-03-26 07:59:13 51°16.218 2°51.472 -999 0.00156 0.01453 -1.348809
2009-03-26 07:59:19 51°16.232 2°51.449 -999 0.00156 0.01453 -1.348809
2009-03-26 07:59:23 51°16.24 2°51.433 -999 0.00156 0.014529 -1.348809
2009-03-26 07:59:29 51°16.254 2°51.41 -999 0.00156 0.014529 -1.348809
2009-03-26 07:59:34 51°16.265 2°51.391 -999 0.00156 0.014528 -1.348809
2009-03-26 07:59:38 51°16.274 2°51.375 -999 0.00156 0.014527 -1.348809
2009-03-26 07:59:44 51°16.287 2°51.352 -999 0.00156 0.014526 -1.348809
2009-03-26 07:59:49 51°16.298 2°51.333 -999 0.00156 0.014526 -1.348809
2009-03-26 07:59:54 51°16.309 2°51.313 -999 0.00156 0.014525 -1.348809
2009-03-26 07:59:58 51°16.318 2°51.298 -999 0.00156 0.014524 -1.348809
2009-03-26 08:00:03 51°16.328 2°51.278 -999 0.00156 0.014523 -1.348809
2009-03-26 08:00:09 51°16.342 2°51.256 -999 0.00156 0.014522 -1.348809
2009-03-26 08:00:14 51°16.354 2°51.238 -999 0.001457 0.014044 -1.348809
2009-03-26 08:00:18 51°16.363 2°51.223 -999 0.001457 0.014044 -1.348809
2009-03-26 08:00:23 51°16.375 2°51.206 -999 0.001457 0.014043 -1.348809
2009-03-26 08:00:29 51°16.39 2°51.187 -999 0.001457 0.014043 -1.348809
2009-03-26 08:00:34 51°16.402 2°51.171 -999 0.001457 0.014041 -1.348809
2009-03-26 08:00:39 51°16.416 2°51.158 -999 0.001457 0.014041 -1.348809
2009-03-26 08:00:43 51°16.427 2°51.147 -999 0.001457 0.01404 -1.348809
2009-03-26 08:00:49 51°16.443 2°51.133 -999 0.001457 0.01404 -1.348809
2009-03-26 08:00:54 51°16.457 2°51.122 -999 0.001457 0.014039 -1.348809
2009-03-26 08:00:58 51°16.469 2°51.114 -999 0.001457 0.014038 -1.348809
2009-03-26 08:01:03 51°16.484 2°51.107 -999 0.001457 0.014037 -1.348809
2009-03-26 08:01:09 51°16.501 2°51.098 -999 0.001457 0.014036 -1.348809
2009-03-26 08:01:13 51°16.513 2°51.093 -999 0.001457 0.014036 -1.348809
2009-03-26 08:01:19 51°16.531 2°51.087 -999 0.001457 0.014036 -1.348809
2009-03-26 08:01:23 51°16.543 2°51.084 -999 0.001457 0.014035 -1.348809
2009-03-26 08:01:29 51°16.561 2°51.081 -999 0.001457 0.014034 -1.348809
2009-03-26 08:01:34 51°16.576 2°51.079 -999 0.001457 0.014033 -1.348809
2009-03-26 08:01:38 51°16.588 2°51.078 -999 0.001457 0.014032 -1.348809
2009-03-26 08:01:43 51°16.601 2°51.078 -999 0.001457 0.014031 -1.348809
2009-03-26 08:01:49 51°16.617 2°51.078 -999 0.001457 0.014031 -1.348809
2009-03-26 08:01:53 51°16.627 2°51.079 -999 0.001457 0.01403 -1.348809
2009-03-26 08:01:58 51°16.639 2°51.079 -999 0.001457 0.014029 -1.348809
2009-03-26 08:02:03 51°16.65 2°51.081 -999 0.001457 0.014028 -1.348809
2009-03-26 08:02:09 51°16.663 2°51.083 -999 0.001457 0.014027 -1.348809
2009-03-26 08:02:13 51°16.672 2°51.083 -999 0.001354 0.013552 -1.348809
2009-03-26 08:02:19 51°16.685 2°51.085 -999 0.001354 0.013552 -1.348809
2009-03-26 08:02:23 51°16.693 2°51.086 -999 0.001354 0.013551 -1.348809
2009-03-26 08:02:29 51°16.706 2°51.088 -999 0.001354 0.01355 -1.348809
2009-03-26 08:02:34 51°16.716 2°51.089 -999 0.001354 0.013549 -1.348809
2009-03-26 08:02:39 51°16.726 2°51.092 -999 0.001354 0.013548 -1.348809
2009-03-26 08:02:43 51°16.734 2°51.092 -999 0.001354 0.013547 -1.348809
2009-03-26 08:02:49 51°16.746 2°51.095 -999 0.001354 0.013547 -1.348809
2009-03-26 08:02:54 51°16.756 2°51.096 -999 0.001354 0.013546 -1.348809
2009-03-26 08:02:58 51°16.764 2°51.097 -999 0.001354 0.013545 -1.348809
2009-03-26 08:03:03 51°16.773 2°51.098 -999 0.001354 0.013544 -1.348809
2009-03-26 08:03:09 51°16.783 2°51.099 -999 0.001354 0.013543 -1.348809
2009-03-26 08:03:14 51°16.791 2°51.1 -999 0.001354 0.013542 -1.348809
2009-03-26 08:03:19 51°16.798 2°51.1 -999 0.001354 0.013542 -1.348809
2009-03-26 08:03:23 51°16.804 2°51.1 -999 0.001354 0.013541 -1.348809
2009-03-26 08:03:29 51°16.811 2°51.099 -999 0.001354 0.01354 -1.348809
2009-03-26 08:03:34 51°16.817 2°51.098 -999 0.001354 0.013539 -1.348809
2009-03-26 08:03:38 51°16.821 2°51.097 -999 0.001354 0.013538 -1.348809
2009-03-26 08:03:43 51°16.826 2°51.096 -999 0.001354 0.013537 -1.348809
2009-03-26 08:03:49 51°16.832 2°51.095 -999 0.001354 0.013537 -1.348809
2009-03-26 08:03:53 51°16.836 2°51.095 -999 0.001354 0.013537 -1.348809
2009-03-26 08:03:59 51°16.841 2°51.093 -999 0.001354 0.013536 -1.348809
2009-03-26 08:04:03 51°16.845 2°51.093 -999 0.001354 0.013535 -1.348809
2009-03-26 08:04:09 51°16.85 2°51.092 -999 0.001354 0.013534 -1.348809
2009-03-26 08:04:14 51°16.853 2°51.092 -999 0.001354 0.013533 -1.348809
2009-03-26 08:04:18 51°16.856 2°51.091 -999 0.001354 0.013533 -1.348809
2009-03-26 08:04:23 51°16.859 2°51.09 -999 0.001354 0.013532 -1.348809
2009-03-26 08:04:29 51°16.863 2°51.089 -999 0.001354 0.013531 -1.348809
2009-03-26 08:04:33 51°16.866 2°51.087 -999 0.001354 0.013531 -1.348809
2009-03-26 08:04:39 51°16.868 2°51.085 -999 0.001354 0.01353 -1.348809
2009-03-26 08:04:43 51°16.87 2°51.083 -999 0.001354 0.013529 -1.348809
2009-03-26 08:04:49 51°16.872 2°51.081 -999 0.001354 0.013529 -1.348809
2009-03-26 08:04:54 51°16.873 2°51.079 -999 0.001354 0.013528 -1.348809
2009-03-26 08:04:58 51°16.874 2°51.078 -999 0.001354 0.013527 -1.348809
2009-03-26 08:05:03 51°16.875 2°51.075 -999 0.001252 0.013055 -1.348809
2009-03-26 08:05:09 51°16.876 2°51.073 -999 0.001252 0.013054 -1.348809
2009-03-26 08:05:14 51°16.877 2°51.071 -999 0.001252 0.013053 -1.348809
2009-03-26 08:05:19 51°16.878 2°51.069 -999 0.001252 0.013053 -1.348809
2009-03-26 08:05:23 51°16.879 2°51.067 -999 0.001252 0.013052 -1.348809
2009-03-26 08:05:29 51°16.879 2°51.065 -999 0.001252 0.013051 -1.348809
2009-03-26 08:05:34 51°16.88 2°51.063 -999 0.001252 0.01305 -1.348809
2009-03-26 08:05:38 51°16.88 2°51.061 -999 0.001252 0.013049 -1.348809
2009-03-26 08:05:43 51°16.881 2°51.059 -999 0.001252 0.013049 -1.348809
2009-03-26 08:05:49 51°16.881 2°51.057 -999 0.001252 0.013049 -1.348809
2009-03-26 08:05:54 51°16.881 2°51.054 -999 0.001252 0.013048 -1.348809
2009-03-26 08:05:59 51°16.881 2°51.053 -999 0.001252 0.013047 -1.348809
2009-03-26 08:06:03 51°16.881 2°51.051 -999 0.001252 0.013046 -1.348809
2009-03-26 08:06:09 51°16.881 2°51.049 -999 -999 -999 -1.348809
2009-03-26 08:06:13 51°16.881 2°51.048 -999 0.001252 0.013044 -1.348809
2009-03-26 08:06:18 51°16.881 2°51.046 -999 0.001252 0.013044 -1.348809
2009-03-26 08:06:23 51°16.881 2°51.044 -999 0.001252 0.013043 -1.348809
2009-03-26 08:06:29 51°16.881 2°51.042 -999 0.001252 0.013042 -1.348809
2009-03-26 08:06:34 51°16.88 2°51.04 -999 0.001252 0.013041 -1.348809
2009-03-26 08:06:38 51°16.88 2°51.039 -999 0.001252 0.01304 -1.348809
2009-03-26 08:06:44 51°16.88 2°51.038 -999 0.001252 0.013039 -1.348809
2009-03-26 08:06:49 51°16.879 2°51.036 -999 0.001252 0.013039 -1.348809
2009-03-26 08:06:54 51°16.879 2°51.035 -999 0.001252 0.013038 -1.348809
2009-03-26 08:06:58 51°16.879 2°51.034 -999 0.001252 0.013037 -1.348809
2009-03-26 08:07:03 51°16.878 2°51.032 -999 0.001252 0.013036 -1.348809
2009-03-26 08:07:09 51°16.878 2°51.031 -999 0.001252 0.013035 -1.348809
2009-03-26 08:07:14 51°16.878 2°51.03 -999 0.001252 0.013035 -1.348809
2009-03-26 08:07:18 51°16.877 2°51.029 -999 0.001252 0.013035 -1.348809
2009-03-26 08:07:23 51°16.877 2°51.028 -999 0.001252 0.013034 -1.348809
2009-03-26 08:07:29 51°16.876 2°51.027 -999 0.001252 0.013033 -1.348809
2009-03-26 08:07:34 51°16.876 2°51.026 -999 0.001252 0.013031 -1.348809
2009-03-26 08:07:38 51°16.876 2°51.025 -999 0.001252 0.01303 -1.348809
2009-03-26 08:07:43 51°16.875 2°51.024 -999 0.001252 0.013029 -1.348809
2009-03-26 08:07:48 51°16.875 2°51.023 -999 0.001252 0.013029 -1.348809
2009-03-26 08:07:54 51°16.874 2°51.022 -999 0.001252 0.013028 -1.348809
2009-03-26 08:07:58 51°16.874 2°51.021 -999 0.001252 0.013027 -1.348809
2009-03-26 08:08:03 51°16.873 2°51.02 -999 -999 -999 -1.348809
2009-03-26 08:08:09 51°16.873 2°51.019 -999 0.001252 0.013025 -1.348809
2009-03-26 08:08:13 51°16.872 2°51.019 -999 0.001252 0.013024 -1.348809
2009-03-26 08:08:18 51°16.872 2°51.018 -999 0.001252 0.013024 -1.348809
2009-03-26 08:08:23 51°16.871 2°51.017 -999 0.001252 0.013023 -1.348809
2009-03-26 08:08:29 51°16.87 2°51.016 -999 0.001252 0.013022 -1.348809
2009-03-26 08:08:33 51°16.87 2°51.016 -999 0.001252 0.013021 -1.348809
2009-03-26 08:08:39 51°16.869 2°51.015 -999 0.001252 0.01302 -1.348809
2009-03-26 08:08:43 51°16.869 2°51.014 -999 0.001252 0.01302 -1.348809
2009-03-26 08:08:49 51°16.868 2°51.013 -999 0.001252 0.01302 -1.348809
2009-03-26 08:08:54 51°16.867 2°51.013 -999 0.001252 0.013019 -1.348809
2009-03-26 08:08:58 51°16.867 2°51.012 -999 0.001252 0.013018 -1.348809
2009-03-26 08:09:03 51°16.866 2°51.012 -999 0.001149 0.012549 -1.348809
2009-03-26 08:09:09 51°16.865 2°51.012 -999 0.001149 0.012548 -1.348809
2009-03-26 08:09:14 51°16.865 2°51.011 -999 0.001149 0.012547 -1.348809
2009-03-26 08:09:18 51°16.864 2°51.011 -999 0.001149 0.012547 -1.348809
2009-03-26 08:09:23 51°16.864 2°51.011 -999 0.001149 0.012546 -1.348809
2009-03-26 08:09:29 51°16.863 2°51.01 -999 0.001149 0.012545 -1.348809
2009-03-26 08:09:34 51°16.863 2°51.01 -999 0.001149 0.012544 -1.348809
2009-03-26 08:09:39 51°16.862 2°51.01 -999 0.001149 0.012543 -1.348809
2009-03-26 08:09:43 51°16.861 2°51.01 -999 0.001149 0.012542 -1.348809
2009-03-26 08:09:49 51°16.86 2°51.009 -999 0.001149 0.012542 -1.348809
2009-03-26 08:09:54 51°16.86 2°51.009 -999 0.001149 0.012541 -1.348809
2009-03-26 08:09:58 51°16.859 2°51.009 -999 0.001149 0.012539 -1.348809
2009-03-26 08:10:03 51°16.859 2°51.008 -999 0.001149 0.012538 -1.348809
2009-03-26 08:10:09 51°16.858 2°51.008 -999 0.001149 0.012538 -1.348809
2009-03-26 08:10:14 51°16.857 2°51.008 -999 0.001149 0.012537 -1.348809
2009-03-26 08:10:18 51°16.857 2°51.007 -999 0.001149 0.012537 -1.348809
2009-03-26 08:10:23 51°16.856 2°51.007 -999 0.001149 0.012536 -1.348809
2009-03-26 08:10:29 51°16.856 2°51.007 -999 0.001149 0.012535 -1.348809
2009-03-26 08:10:33 51°16.855 2°51.007 -999 0.001149 0.012534 -1.348809
2009-03-26 08:10:38 51°16.854 2°51.007 -999 0.001149 0.012533 -1.348809
2009-03-26 08:10:43 51°16.854 2°51.006 -999 0.001149 0.012532 -1.348809
2009-03-26 08:10:49 51°16.853 2°51.006 -999 0.001149 0.012532 -1.348809
2009-03-26 08:10:54 51°16.852 2°51.006 -999 0.001149 0.012531 -1.348809
2009-03-26 08:10:58 51°16.852 2°51.006 -999 0.001149 0.01253 -1.348809
2009-03-26 08:11:03 51°16.851 2°51.005 -999 0.001149 0.012529 -1.348809
2009-03-26 08:11:09 51°16.85 2°51.005 -999 0.001149 0.012528 -1.348809
2009-03-26 08:11:14 51°16.849 2°51.005 -999 0.001149 0.012527 -1.348809
2009-03-26 08:11:18 51°16.849 2°51.005 -999 0.001149 0.012527 -1.348809
2009-03-26 08:11:23 51°16.848 2°51.005 -999 0.001149 0.012526 -1.348809
2009-03-26 08:11:29 51°16.847 2°51.004 -999 0.001149 0.012525 -1.348809
2009-03-26 08:11:34 51°16.846 2°51.004 -999 0.001149 0.012524 -1.348809
2009-03-26 08:11:38 51°16.846 2°51.005 -999 0.001149 0.012522 -1.348809
2009-03-26 08:11:43 51°16.845 2°51.004 -999 0.001149 0.012522 -1.348809
2009-03-26 08:11:49 51°16.844 2°51.005 -999 0.001149 0.012522 -1.348809
2009-03-26 08:11:54 51°16.843 2°51.005 -999 0.001149 0.012521 -1.348809
2009-03-26 08:11:58 51°16.843 2°51.005 -999 0.001149 0.01252 -1.348809
2009-03-26 08:12:03 51°16.842 2°51.005 -999 0.001149 0.012519 -1.348809
2009-03-26 08:12:09 51°16.841 2°51.005 -999 0.001149 0.012518 -1.348809
2009-03-26 08:12:14 51°16.84 2°51.005 -999 0.001149 0.012516 -1.348809
2009-03-26 08:12:18 51°16.839 2°51.005 -999 0.001149 0.012516 -1.348809
2009-03-26 08:12:23 51°16.838 2°51.005 -999 0.001149 0.012515 -1.348809
2009-03-26 08:12:29 51°16.838 2°51.005 -999 0.001149 0.012514 -1.348809
2009-03-26 08:12:34 51°16.837 2°51.005 -999 0.001149 0.012513 -1.348809
2009-03-26 08:12:39 51°16.836 2°51.005 -999 0.001149 0.012512 -1.348809
2009-03-26 08:12:43 51°16.835 2°51.004 -999 0.001149 0.012511 -1.348809
2009-03-26 08:12:48 51°16.834 2°51.005 -999 0.001149 0.012511 -1.348809
2009-03-26 08:12:54 51°16.833 2°51.005 -999 0.001149 0.01251 -1.348809
2009-03-26 08:12:58 51°16.833 2°51.005 -999 0.001149 0.012509 -1.348809
2009-03-26 08:13:03 51°16.832 2°51.005 -999 0.001149 0.012506 -1.348809
2009-03-26 08:13:09 51°16.83 2°51.005 -999 0.013394 0.077905 -0.721976
2009-03-26 08:13:13 51°16.83 2°51.005 -999 0.037166 0.217099 -0.861272
2009-03-26 08:13:18 51°16.829 2°51.005 -999 0.037166 0.217099 -0.861272
2009-03-26 08:13:23 51°16.828 2°51.005 -999 0.352343 2.272421 0.636162
2009-03-26 08:13:29 51°16.827 2°51.005 -999 0.686535 4.70163 3.909623
2009-03-26 08:13:34 51°16.826 2°51.005 -999 1.693552 13.061416 19.824216
2009-03-26 08:13:38 51°16.825 2°51.005 -999 2.560513 21.977005 29.749071
2009-03-26 08:13:43 51°16.824 2°51.005 -999 2.798395 24.766774 30.654497
2009-03-26 08:13:49 51°16.823 2°51.005 -999 2.798395 24.766774 30.654497
2009-03-26 08:13:54 51°16.822 2°51.005 -999 3.0393 28.207018 30.689321
2009-03-26 08:13:58 51°16.821 2°51.005 -999 3.279492 31.133206 30.689321
2009-03-26 08:14:03 51°16.821 2°51.005 -999 3.319055 31.806869 30.619673
2009-03-26 08:14:09 51°16.819 2°51.005 -999 3.325685 32.060996 30.584849
2009-03-26 08:14:14 51°16.818 2°51.005 -999 3.330554 32.225198 30.445552
2009-03-26 08:14:18 51°16.818 2°51.005 -999 3.330554 32.225198 30.445552
2009-03-26 08:14:23 51°16.817 2°51.006 -999 3.321545 32.214466 30.550024
2009-03-26 08:14:28 51°16.816 2°51.006 -999 3.320303 32.252865 30.410728
2009-03-26 08:14:34 51°16.815 2°51.006 -999 3.314607 32.228657 30.410728
2009-03-26 08:14:38 51°16.814 2°51.006 -999 3.310569 32.20845 30.550024
2009-03-26 08:14:43 51°16.813 2°51.006 -999 3.307669 32.199653 30.480376
2009-03-26 08:14:49 51°16.813 2°51.006 -999 3.307669 32.199653 30.480376
2009-03-26 08:14:53 51°16.812 2°51.006 -999 3.307359 32.210148 30.550024
2009-03-26 08:14:58 51°16.811 2°51.006 -999 3.306841 32.221881 30.445552
2009-03-26 08:15:03 51°16.811 2°51.006 -999 3.302699 32.18666 30.480376
2009-03-26 08:15:09 51°16.809 2°51.006 -999 3.307255 32.243703 30.410728
2009-03-26 08:15:13 51°16.808 2°51.006 -999 3.304667 32.228732 30.654497
2009-03-26 08:15:19 51°16.807 2°51.006 -999 3.304667 32.228732 30.654497
2009-03-26 08:15:23 51°16.807 2°51.006 -999 3.304977 32.234695 30.654497
2009-03-26 08:15:29 51°16.806 2°51.006 -999 3.305081 32.248841 30.863441
2009-03-26 08:15:34 51°16.805 2°51.006 -999 3.303631 32.234026 30.550024
2009-03-26 08:15:38 51°16.804 2°51.006 -999 3.304977 32.254672 30.550024
2009-03-26 08:15:43 51°16.804 2°51.006 -999 3.308084 32.29264 30.480376
2009-03-26 08:15:49 51°16.803 2°51.006 -999 3.308084 32.29264 30.480376
2009-03-26 08:15:54 51°16.802 2°51.006 -999 3.303424 32.244817 30.724145
2009-03-26 08:15:58 51°16.801 2°51.006 -999 3.304874 32.263985 30.933089
2009-03-26 08:16:03 51°16.8 2°51.006 -999 3.30301 32.248157 31.037561
2009-03-26 08:16:09 51°16.799 2°51.006 -999 3.304771 32.272433 31.28133
2009-03-26 08:16:14 51°16.799 2°51.006 -999 3.301871 32.242781 31.211682
2009-03-26 08:16:18 51°16.798 2°51.006 -999 3.301871 32.242781 31.211682
2009-03-26 08:16:23 51°16.797 2°51.006 -999 3.307049 32.301456 31.142033
2009-03-26 08:16:28 51°16.796 2°51.006 -999 3.305806 32.290611 31.142033
2009-03-26 08:16:34 51°16.795 2°51.006 -999 3.304046 32.274158 31.072385
2009-03-26 08:16:38 51°16.795 2°51.006 -999 3.30446 32.281257 30.863441
2009-03-26 08:16:43 51°16.794 2°51.006 -999 3.303735 32.273406 30.5152
2009-03-26 08:16:49 51°16.793 2°51.006 -999 3.303735 32.273406 30.5152
2009-03-26 08:16:54 51°16.792 2°51.006 -999 3.307774 32.320638 30.480376
2009-03-26 08:16:59 51°16.792 2°51.006 -999 3.305289 32.295457 30.550024
2009-03-26 08:17:03 51°16.791 2°51.005 -999 3.306013 32.304182 30.619673
2009-03-26 08:17:08 51°16.79 2°51.005 -999 3.305703 32.303431 30.793793
2009-03-26 08:17:14 51°16.79 2°51.005 -999 3.3027 32.271767 30.933089
2009-03-26 08:17:18 51°16.789 2°51.005 -999 3.3027 32.271767 30.933089
2009-03-26 08:17:23 51°16.788 2°51.004 -999 3.308603 32.337466 30.793793
2009-03-26 08:17:29 51°16.788 2°51.003 -999 3.30591 32.309162 30.898265
2009-03-26 08:17:33 51°16.787 2°51.003 -999 3.309742 32.354177 30.863441
2009-03-26 08:17:39 51°16.787 2°51.003 -999 3.308292 32.33759 31.072385
2009-03-26 08:17:43 51°16.786 2°51.002 -999 3.3027 32.279607 31.246506
2009-03-26 08:17:49 51°16.786 2°51.002 -999 3.3027 32.279607 31.246506
2009-03-26 08:17:54 51°16.786 2°51.001 -999 3.30736 32.330107 31.28133
2009-03-26 08:17:58 51°16.785 2°51.001 -999 3.303942 32.294816 31.62957
2009-03-26 08:18:03 51°16.785 2°51 -999 3.307049 32.327613 31.734042
2009-03-26 08:18:09 51°16.785 2°50.999 -999 3.30415 32.298804 31.559922
2009-03-26 08:18:14 51°16.784 2°50.998 -999 3.306946 32.329109 31.316154
2009-03-26 08:18:18 51°16.784 2°50.997 -999 3.306946 32.329109 31.316154
2009-03-26 08:18:23 51°16.784 2°50.996 -999 3.306842 32.327113 30.967913
2009-03-26 08:18:29 51°16.784 2°50.995 -999 3.303218 32.287832 30.898265
2009-03-26 08:18:34 51°16.784 2°50.994 -999 3.300111 32.250685 30.480376
2009-03-26 08:18:38 51°16.784 2°50.993 -999 3.302803 32.275502 30.445552
2009-03-26 08:18:43 51°16.784 2°50.992 -999 3.308085 32.329238 30.271432
2009-03-26 08:18:49 51°16.784 2°50.99 -999 3.308085 32.329238 30.271432
2009-03-26 08:18:54 51°16.784 2°50.989 -999 3.304667 32.289597 30.550024
2009-03-26 08:18:58 51°16.784 2°50.988 -999 3.3027 32.266543 30.933089
2009-03-26 08:19:03 51°16.785 2°50.986 -999 3.308188 32.323382 30.933089
2009-03-26 08:19:09 51°16.785 2°50.985 -999 3.306842 32.313157 30.863441
2009-03-26 08:19:14 51°16.785 2°50.984 -999 3.309949 32.34769 30.898265
2009-03-26 08:19:18 51°16.785 2°50.982 -999 3.309949 32.34769 30.898265
2009-03-26 08:19:23 51°16.785 2°50.981 -999 3.307878 32.328738 31.211682
2009-03-26 08:19:29 51°16.785 2°50.98 -999 3.304564 32.296318 31.594746
2009-03-26 08:19:34 51°16.785 2°50.978 -999 3.306014 32.315517 32.082283
2009-03-26 08:19:38 51°16.785 2°50.977 -999 3.304046 32.298554 32.186755
2009-03-26 08:19:43 51°16.786 2°50.976 -999 3.301871 32.279343 32.151931
2009-03-26 08:19:49 51°16.786 2°50.973 -999 3.301871 32.279343 32.151931
2009-03-26 08:19:53 51°16.786 2°50.972 -999 3.303425 32.298795 32.117107
2009-03-26 08:19:58 51°16.786 2°50.971 -999 3.309431 32.365661 32.047459
2009-03-26 08:20:03 51°16.787 2°50.969 -999 3.307878 32.352312 32.117107
2009-03-26 08:20:09 51°16.787 2°50.967 -999 3.309328 32.368908 32.291227
2009-03-26 08:20:13 51°16.787 2°50.966 -999 3.30881 32.364167 32.465347
2009-03-26 08:20:18 51°16.787 2°50.964 -999 3.30881 32.364167 32.465347
2009-03-26 08:20:23 51°16.788 2°50.962 -999 3.30736 32.349318 32.291227
2009-03-26 08:20:29 51°16.788 2°50.96 -999 3.306842 32.345451 32.256403
2009-03-26 08:20:34 51°16.788 2°50.958 -999 3.307671 32.355309 32.326051
2009-03-26 08:20:38 51°16.789 2°50.957 -999 3.304875 32.32586 32.639468
2009-03-26 08:20:43 51°16.789 2°50.955 -999 3.306739 32.346075 32.56982
2009-03-26 08:20:49 51°16.79 2°50.953 -999 3.306739 32.346075 32.56982
2009-03-26 08:20:54 51°16.79 2°50.951 -999 3.305393 32.332348 32.74394
2009-03-26 08:20:58 51°16.79 2°50.949 -999 3.30736 32.354562 32.56982
2009-03-26 08:21:03 51°16.791 2°50.948 -999 3.303736 32.316125 32.883236
2009-03-26 08:21:09 51°16.792 2°50.945 -999 3.304461 32.32486 33.266301
2009-03-26 08:21:14 51°16.792 2°50.943 -999 3.30125 32.290046 33.301125
2009-03-26 08:21:18 51°16.793 2°50.941 -999 3.30125 32.290046 33.301125
2009-03-26 08:21:23 51°16.795 2°50.939 -999 3.300525 32.283058 33.684189
2009-03-26 08:21:29 51°16.796 2°50.936 -999 3.302389 32.304144 33.823486
2009-03-26 08:21:34 51°16.798 2°50.934 -999 3.302907 32.310633 33.440421
2009-03-26 08:21:38 51°16.799 2°50.933 -999 3.300422 32.285424 33.196653
2009-03-26 08:21:43 51°16.801 2°50.931 -999 3.305807 32.342957 33.335949
2009-03-26 08:21:49 51°16.803 2°50.929 -999 3.305807 32.342957 33.335949
2009-03-26 08:21:53 51°16.805 2°50.928 -999 3.30736 32.361556 33.196653
2009-03-26 08:21:58 51°16.807 2°50.927 -999 3.305807 32.344705 33.057356
2009-03-26 08:22:03 51°16.809 2°50.926 -999 3.306739 32.35569 33.266301
2009-03-26 08:22:09 51°16.812 2°50.926 -999 3.304564 32.332098 33.196653
2009-03-26 08:22:13 51°16.814 2°50.926 -999 3.3056 32.342458 33.161829
2009-03-26 08:22:19 51°16.817 2°50.926 -999 3.3056 32.342458 33.161829
2009-03-26 08:22:23 51°16.819 2°50.926 -999 3.306532 32.353443 32.91806
2009-03-26 08:22:29 51°16.822 2°50.927 -999 3.30591 32.347576 32.674292
2009-03-26 08:22:34 51°16.824 2°50.929 -999 3.306428 32.354068 32.56982
2009-03-26 08:22:38 51°16.826 2°50.93 -999 3.30736 32.36418 32.674292
2009-03-26 08:22:43 51°16.828 2°50.932 -999 3.30736 32.36418 33.057356
2009-03-26 08:22:49 51°16.831 2°50.935 -999 3.30736 32.36418 33.057356
2009-03-26 08:22:54 51°16.833 2°50.937 -999 3.304978 32.338339 33.266301
2009-03-26 08:22:58 51°16.834 2°50.94 -999 3.305393 32.343707 33.475245
2009-03-26 08:23:04 51°16.836 2°50.944 -999 3.304564 32.335593 33.544893
2009-03-26 08:23:09 51°16.837 2°50.948 -999 3.306118 32.352446 33.440421
2009-03-26 08:23:14 51°16.838 2°50.952 -999 3.3056 32.346828 33.753837
2009-03-26 08:23:18 51°16.839 2°50.956 -999 3.3056 32.346828 33.753837
2009-03-26 08:23:23 51°16.84 2°50.96 -999 3.307257 32.366555 33.962782
2009-03-26 08:23:28 51°16.841 2°50.965 -999 3.300318 32.291281 34.03243
2009-03-26 08:23:34 51°16.842 2°50.972 -999 3.293276 32.21578 34.102078
2009-03-26 08:23:38 51°16.842 2°50.976 -999 3.301147 32.301141 34.03243
2009-03-26 08:23:43 51°16.843 2°50.981 -999 3.304668 32.339339 34.20655
2009-03-26 08:23:49 51°16.843 2°50.989 -999 3.304668 32.339339 34.20655
2009-03-26 08:23:54 51°16.844 2°50.996 -999 3.303114 32.322486 34.241374
2009-03-26 08:23:59 51°16.845 2°51.004 -999 3.301975 32.311001 34.03243
2009-03-26 08:24:03 51°16.845 2°51.01 -999 3.303218 32.325357 33.85831
2009-03-26 08:24:09 51°16.846 2°51.021 -999 3.302804 32.320863 33.823486
2009-03-26 08:24:14 51°16.846 2°51.031 -999 3.302389 32.316368 33.614541
2009-03-26 08:24:18 51°16.846 2°51.04 -999 3.302389 32.316368 33.614541
2009-03-26 08:24:23 51°16.847 2°51.051 -999 3.302804 32.321736 33.405597
2009-03-26 08:24:29 51°16.847 2°51.066 -999 3.3056 32.352074 33.544893
2009-03-26 08:24:33 51°16.848 2°51.076 -999 3.305082 32.34733 33.510069
2009-03-26 08:24:38 51°16.848 2°51.089 -999 3.303114 32.325107 33.753837
2009-03-26 08:24:43 51°16.849 2°51.102 -999 3.297419 32.264191 33.753837
2009-03-26 08:24:49 51°16.85 2°51.116 -999 3.297419 32.264191 33.753837
2009-03-26 08:24:54 51°16.853 2°51.127 -999 3.303322 32.328228 33.823486
2009-03-26 08:24:58 51°16.855 2°51.134 -999 3.300008 32.293148 33.753837
2009-03-26 08:25:03 51°16.858 2°51.142 -999 3.305186 32.349328 33.788661
2009-03-26 08:25:09 51°16.862 2°51.15 -999 3.301872 32.314245 33.962782
2009-03-26 08:25:14 51°16.865 2°51.156 -999 3.299593 32.289527 33.962782
2009-03-26 08:25:18 51°16.868 2°51.16 -999 3.299593 32.289527 33.962782
2009-03-26 08:25:23 51°16.871 2°51.164 -999 3.300111 32.29689 33.614541
2009-03-26 08:25:29 51°16.875 2°51.168 -999 3.306532 32.367437 33.440421
2009-03-26 08:25:34 51°16.878 2°51.17 -999 3.305393 32.3542 33.266301
2009-03-26 08:25:38 51°16.881 2°51.172 -999 3.306118 32.362067 33.022532
2009-03-26 08:25:43 51°16.884 2°51.173 -999 3.303425 32.333722 32.883236
2009-03-26 08:25:49 51°16.888 2°51.174 -999 3.303425 32.333722 32.883236
2009-03-26 08:25:54 51°16.892 2°51.173 -999 3.303425 32.332847 32.74394
2009-03-26 08:25:58 51°16.894 2°51.172 -999 3.303943 32.338466 33.266301
2009-03-26 08:26:03 51°16.897 2°51.171 -999 3.300629 32.303382 33.057356
2009-03-26 08:26:09 51°16.9 2°51.169 -999 3.304771 32.349206 33.335949
2009-03-26 08:26:13 51°16.901 2°51.168 -999 3.303322 32.334346 33.231477
2009-03-26 08:26:18 51°16.903 2°51.166 -999 3.303322 32.334346 33.231477
2009-03-26 08:26:23 51°16.905 2°51.165 -999 3.303943 32.341089 33.057356
2009-03-26 08:26:29 51°16.907 2°51.163 -999 3.30125 32.311871 33.266301
2009-03-26 08:26:33 51°16.908 2°51.161 -999 3.306118 32.365567 33.335949
2009-03-26 08:26:39 51°16.909 2°51.159 -999 3.305186 32.356326 33.231477
2009-03-26 08:26:43 51°16.91 2°51.158 -999 3.305289 32.35745 32.952884
2009-03-26 08:26:48 51°16.91 2°51.156 -999 3.305289 32.35745 32.952884
2009-03-26 08:26:54 51°16.911 2°51.155 -999 3.305082 32.355202 33.022532
2009-03-26 08:26:58 51°16.911 2°51.153 -999 3.304461 32.348458 33.057356
2009-03-26 08:27:03 51°16.911 2°51.152 -999 3.304357 32.348209 32.883236
2009-03-26 08:27:09 51°16.912 2°51.15 -999 3.30415 32.345961 32.778764
2009-03-26 08:27:14 51°16.912 2°51.149 -999 3.305807 32.365695 32.674292
2009-03-26 08:27:18 51°16.912 2°51.148 -999 3.305807 32.365695 32.674292
2009-03-26 08:27:24 51°16.912 2°51.146 -999 3.306014 32.367943 32.465347
2009-03-26 08:27:29 51°16.911 2°51.145 -999 3.306739 32.375813 32.534996
2009-03-26 08:27:34 51°16.911 2°51.144 -999 3.306118 32.369068 32.395699
2009-03-26 08:27:38 51°16.911 2°51.143 -999 3.306118 32.369943 32.256403
2009-03-26 08:27:43 51°16.911 2°51.142 -999 3.307153 32.381185 32.012635
2009-03-26 08:27:49 51°16.91 2°51.141 -999 3.307153 32.381185 32.012635
2009-03-26 08:27:54 51°16.91 2°51.14 -999 3.305082 32.358701 31.873339
2009-03-26 08:27:58 51°16.909 2°51.139 -999 3.3056 32.365197 31.80369
2009-03-26 08:28:03 51°16.909 2°51.138 -999 3.305496 32.363198 31.176857
2009-03-26 08:28:09 51°16.908 2°51.137 -999 3.305289 32.3592 31.002737
2009-03-26 08:28:14 51°16.908 2°51.136 -999 3.30415 32.344212 30.654497
2009-03-26 08:28:18 51°16.908 2°51.136 -999 3.30415 32.344212 30.654497
2009-03-26 08:28:23 51°16.907 2°51.135 -999 3.304461 32.343211 30.5152
2009-03-26 08:28:28 51°16.907 2°51.135 -999 3.307775 32.373923 30.480376
2009-03-26 08:28:34 51°16.906 2°51.135 -999 3.308603 32.378538 30.34108
2009-03-26 08:28:38 51°16.905 2°51.134 -999 3.308707 32.377911 30.445552
2009-03-26 08:28:43 51°16.905 2°51.134 -999 3.308499 32.375664 30.34108
2009-03-26 08:28:49 51°16.904 2°51.134 -999 3.308499 32.375664 30.34108
2009-03-26 08:28:53 51°16.903 2°51.134 -999 3.308914 32.381034 30.201784
2009-03-26 08:28:59 51°16.903 2°51.133 -999 3.308603 32.381163 30.16696
2009-03-26 08:29:03 51°16.902 2°51.133 -999 3.308396 32.381541 30.062488
2009-03-26 08:29:09 51°16.901 2°51.133 -999 3.306946 32.369308 30.027664
2009-03-26 08:29:14 51°16.9 2°51.133 -999 3.307878 32.381174 29.923192
2009-03-26 08:29:18 51°16.9 2°51.133 -999 3.307878 32.381174 29.923192
2009-03-26 08:29:23 51°16.899 2°51.133 -999 3.308085 32.385173 29.749071
2009-03-26 08:29:29 51°16.898 2°51.133 -999 3.306739 32.371436 29.818719
2009-03-26 08:29:34 51°16.897 2°51.134 -999 3.307671 32.383303 30.062488
2009-03-26 08:29:38 51°16.897 2°51.134 -999 3.306532 32.371813 30.062488
2009-03-26 08:29:43 51°16.896 2°51.134 -999 3.305289 32.360075 30.236608
2009-03-26 08:29:49 51°16.895 2°51.135 -999 3.305289 32.360075 30.236608
2009-03-26 08:29:54 51°16.894 2°51.135 -999 3.305082 32.357826 30.16696
2009-03-26 08:29:58 51°16.893 2°51.135 -999 3.305496 32.363198 30.132136
2009-03-26 08:30:03 51°16.892 2°51.136 -999 3.3056 32.365197 30.097312
2009-03-26 08:30:09 51°16.891 2°51.136 -999 3.302907 32.335971 29.923192
2009-03-26 08:30:14 51°16.89 2°51.137 -999 3.304564 32.353956 29.749071
2009-03-26 08:30:18 51°16.89 2°51.137 -999 3.304564 32.353956 29.749071
2009-03-26 08:30:23 51°16.889 2°51.138 -999 3.304564 32.353956 29.574951
2009-03-26 08:30:29 51°16.887 2°51.138 -999 3.304564 32.353956 29.470479
2009-03-26 08:30:34 51°16.886 2°51.139 -999 3.304564 32.353956 29.574951
2009-03-26 08:30:38 51°16.886 2°51.139 -999 3.304047 32.348335 29.644599
2009-03-26 08:30:43 51°16.884 2°51.14 -999 3.302907 32.33772 29.853543
2009-03-26 08:30:49 51°16.883 2°51.141 -999 3.302907 32.33772 29.853543
2009-03-26 08:30:54 51°16.882 2°51.141 -999 3.302907 32.33772 29.888367
2009-03-26 08:30:59 51°16.881 2°51.141 -999 3.305186 32.362451 29.714247
2009-03-26 08:31:03 51°16.88 2°51.142 -999 3.305186 32.362451 29.470479
2009-03-26 08:31:08 51°16.879 2°51.143 -999 3.304875 32.358203 29.540127
2009-03-26 08:31:14 51°16.878 2°51.144 -999 3.304564 32.355706 29.470479
2009-03-26 08:31:18 51°16.877 2°51.144 -999 3.304564 32.355706 29.470479
2009-03-26 08:31:23 51°16.875 2°51.145 -999 3.306221 32.373693 29.331183
2009-03-26 08:31:29 51°16.874 2°51.146 -999 3.306739 32.378439 29.331183
2009-03-26 08:31:34 51°16.873 2°51.146 -999 3.305393 32.363824 29.261534
2009-03-26 08:31:38 51°16.872 2°51.147 -999 3.305704 32.367197 29.400831
2009-03-26 08:31:44 51°16.87 2°51.147 -999 3.305704 32.368072 29.366007
2009-03-26 08:31:49 51°16.869 2°51.147 -999 3.305704 32.368072 29.366007
2009-03-26 08:31:54 51°16.867 2°51.148 -999 3.305807 32.369196 29.609775
2009-03-26 08:31:58 51°16.866 2°51.148 -999 3.305911 32.370321 29.714247
2009-03-26 08:32:03 51°16.865 2°51.149 -999 3.305082 32.361327 29.853543
2009-03-26 08:32:09 51°16.863 2°51.149 -999 3.304979 32.360203 29.679423
2009-03-26 08:32:14 51°16.862 2°51.15 -999 3.307671 32.389434 29.540127
2009-03-26 08:32:18 51°16.861 2°51.15 -999 3.307671 32.389434 29.540127
2009-03-26 08:32:23 51°16.86 2°51.151 -999 3.307153 32.383812 29.435655
2009-03-26 08:32:29 51°16.858 2°51.151 -999 3.306221 32.373693 29.540127
2009-03-26 08:32:34 51°16.857 2°51.152 -999 3.307153 32.383812 29.679423
2009-03-26 08:32:38 51°16.856 2°51.152 -999 3.306843 32.380439 29.958016
2009-03-26 08:32:43 51°16.854 2°51.152 -999 3.30705 32.382688 30.271432
2009-03-26 08:32:48 51°16.853 2°51.153 -999 3.30705 32.382688 30.271432
2009-03-26 08:32:54 51°16.851 2°51.154 -999 3.307257 32.385812 30.584849
2009-03-26 08:32:58 51°16.85 2°51.154 -999 3.306014 32.373196 30.828617
2009-03-26 08:33:03 51°16.849 2°51.155 -999 3.306946 32.384191 30.550024
2009-03-26 08:33:09 51°16.847 2°51.155 -999 3.30705 32.384439 30.16696
2009-03-26 08:33:14 51°16.846 2°51.156 -999 3.303529 32.346214 30.34108
2009-03-26 08:33:19 51°16.845 2°51.156 -999 3.303529 32.346214 30.34108
2009-03-26 08:33:23 51°16.844 2°51.156 -999 3.300318 32.311367 30.410728
2009-03-26 08:33:29 51°16.842 2°51.157 -999 3.305393 32.36645 30.445552
2009-03-26 08:33:34 51°16.841 2°51.157 -999 3.306532 32.378818 30.16696
2009-03-26 08:33:38 51°16.84 2°51.158 -999 3.304772 32.358829 30.097312
2009-03-26 08:33:43 51°16.839 2°51.158 -999 3.306221 32.375445 30.027664
2009-03-26 08:33:49 51°16.837 2°51.159 -999 3.306221 32.375445 30.027664
2009-03-26 08:33:53 51°16.836 2°51.16 -999 3.306221 32.375445 29.888367
2009-03-26 08:33:58 51°16.835 2°51.16 -999 3.306014 32.373196 29.99284
2009-03-26 08:34:03 51°16.834 2°51.161 -999 3.305807 32.371823 29.99284
2009-03-26 08:34:09 51°16.832 2°51.161 -999 3.305704 32.369823 29.888367
2009-03-26 08:34:14 51°16.831 2°51.162 -999 3.305082 32.363077 30.097312
2009-03-26 08:34:18 51°16.83 2°51.162 -999 3.305082 32.363077 30.097312
2009-03-26 08:34:23 51°16.829 2°51.162 -999 3.304668 32.35858 29.818719
2009-03-26 08:34:29 51°16.827 2°51.163 -999 3.304979 32.361953 29.783895
2009-03-26 08:34:34 51°16.826 2°51.163 -999 3.304564 32.357456 29.888367
2009-03-26 08:34:38 51°16.825 2°51.164 -999 3.305704 32.369823 29.958016
2009-03-26 08:34:43 51°16.824 2°51.164 -999 3.304047 32.351835 30.201784
2009-03-26 08:34:49 51°16.822 2°51.165 -999 3.304047 32.351835 30.201784
2009-03-26 08:34:54 51°16.821 2°51.165 -999 3.304772 32.359705 30.410728
2009-03-26 08:34:58 51°16.82 2°51.165 -999 3.304979 32.361953 30.550024
2009-03-26 08:35:03 51°16.819 2°51.166 -999 3.304668 32.35858 30.271432
2009-03-26 08:35:09 51°16.818 2°51.167 -999 3.303115 32.341717 30.201784
2009-03-26 08:35:14 51°16.817 2°51.167 -999 3.303322 32.343966 30.027664
2009-03-26 08:35:18 51°16.816 2°51.167 -999 3.303322 32.343966 30.027664
2009-03-26 08:35:23 51°16.814 2°51.168 -999 3.305082 32.363077 30.16696
2009-03-26 08:35:29 51°16.813 2°51.168 -999 3.303425 32.344215 30.16696
2009-03-26 08:35:33 51°16.812 2°51.169 -999 3.30384 32.349587 30.132136
2009-03-26 08:35:38 51°16.811 2°51.169 -999 3.301872 32.328228 30.062488
2009-03-26 08:35:43 51°16.81 2°51.17 -999 3.304357 32.355208 29.99284
2009-03-26 08:35:49 51°16.809 2°51.17 -999 3.304357 32.355208 29.99284
2009-03-26 08:35:53 51°16.809 2°51.17 -999 3.305704 32.368948 29.853543
2009-03-26 08:35:58 51°16.808 2°51.17 -999 3.306532 32.377942 29.923192
2009-03-26 08:36:03 51°16.808 2°51.171 -999 3.306636 32.379066 29.888367
2009-03-26 08:36:09 51°16.807 2°51.171 -999 3.305704 32.369823 29.923192
2009-03-26 08:36:14 51°16.807 2°51.171 -999 3.306014 32.373196 30.201784
2009-03-26 08:36:18 51°16.807 2°51.171 -999 3.306014 32.373196 30.201784
2009-03-26 08:36:23 51°16.807 2°51.171 -999 3.306118 32.37432 30.16696
2009-03-26 08:36:29 51°16.808 2°51.17 -999 3.306739 32.381942 30.062488
2009-03-26 08:36:34 51°16.808 2°51.17 -999 3.30415 32.353834 30.16696
2009-03-26 08:36:38 51°16.808 2°51.17 -999 3.306014 32.374072 30.097312
2009-03-26 08:36:43 51°16.808 2°51.17 -999 3.306014 32.373196 30.306256
2009-03-26 08:36:49 51°16.809 2°51.169 -999 3.306014 32.373196 30.306256
2009-03-26 08:36:54 51°16.81 2°51.168 -999 3.305393 32.364699 30.793793
2009-03-26 08:36:58 51°16.81 2°51.168 -999 3.305807 32.367446 31.002737
2009-03-26 08:37:03 51°16.811 2°51.167 -999 3.306014 32.367943 31.350978
2009-03-26 08:37:09 51°16.812 2°51.167 -999 3.306325 32.370441 31.45545
2009-03-26 08:37:14 51°16.813 2°51.166 -999 3.306428 32.371565 31.45545
2009-03-26 08:37:18 51°16.815 2°51.166 -999 3.306428 32.371565 31.45545
2009-03-26 08:37:23 51°16.817 2°51.165 -999 3.306739 32.376688 31.490274
2009-03-26 08:37:29 51°16.819 2°51.165 -999 3.306739 32.377564 31.559922
2009-03-26 08:37:34 51°16.822 2°51.166 -999 3.305704 32.367197 31.908163
2009-03-26 08:37:38 51°16.824 2°51.166 -999 3.306532 32.378818 31.768866
2009-03-26 08:37:43 51°16.827 2°51.168 -999 3.305496 32.367574 32.151931
2009-03-26 08:37:49 51°16.831 2°51.17 -999 3.305496 32.367574 32.151931
2009-03-26 08:37:53 51°16.833 2°51.172 -999 3.304875 32.360829 32.047459
2009-03-26 08:37:59 51°16.836 2°51.176 -999 3.304979 32.362828 32.151931
2009-03-26 08:38:03 51°16.838 2°51.18 -999 3.3056 32.369574 32.047459
2009-03-26 08:38:08 51°16.84 2°51.185 -999 3.305082 32.363953 32.291227
2009-03-26 08:38:14 51°16.842 2°51.191 -999 3.304461 32.357207 32.430523
2009-03-26 08:38:18 51°16.843 2°51.196 -999 3.304461 32.357207 32.430523
2009-03-26 08:38:23 51°16.844 2°51.201 -999 3.304772 32.36058 32.534996
2009-03-26 08:38:29 51°16.844 2°51.209 -999 3.305497 32.369325 33.022532
2009-03-26 08:38:34 51°16.844 2°51.215 -999 3.304254 32.355834 32.987708
2009-03-26 08:38:38 51°16.843 2°51.22 -999 3.303425 32.347714 32.987708
2009-03-26 08:38:44 51°16.842 2°51.227 -999 3.305497 32.370201 32.91806
2009-03-26 08:38:49 51°16.84 2°51.232 -999 3.305497 32.370201 32.91806
2009-03-26 08:38:54 51°16.839 2°51.238 -999 3.303943 32.353336 32.952884
2009-03-26 08:38:58 51°16.837 2°51.242 -999 3.304254 32.356709 32.848412
2009-03-26 08:39:03 51°16.835 2°51.246 -999 3.303943 32.353336 32.91806
2009-03-26 08:39:09 51°16.832 2°51.252 -999 3.3027 32.339845 32.883236
2009-03-26 08:39:14 51°16.829 2°51.257 -999 3.301665 32.328603 32.778764
2009-03-26 08:39:18 51°16.827 2°51.26 -999 3.301665 32.328603 32.778764
2009-03-26 08:39:23 51°16.824 2°51.264 -999 3.304668 32.360331 32.674292
2009-03-26 08:39:29 51°16.821 2°51.269 -999 3.305807 32.372698 32.465347
2009-03-26 08:39:34 51°16.818 2°51.273 -999 3.3056 32.37045 32.430523
2009-03-26 08:39:38 51°16.815 2°51.276 -999 3.305807 32.371823 32.430523
2009-03-26 08:39:43 51°16.812 2°51.28 -999 3.305911 32.372947 32.256403
2009-03-26 08:39:49 51°16.808 2°51.285 -999 3.305911 32.372947 32.256403
2009-03-26 08:39:54 51°16.804 2°51.288 -999 3.304564 32.358331 32.256403
2009-03-26 08:39:58 51°16.801 2°51.291 -999 3.304772 32.361455 32.151931
2009-03-26 08:40:03 51°16.798 2°51.295 -999 3.301975 32.330226 32.082283
2009-03-26 08:40:09 51°16.793 2°51.3 -999 3.303943 32.351586 32.047459
2009-03-26 08:40:13 51°16.79 2°51.302 -999 3.30384 32.350461 32.047459
2009-03-26 08:40:18 51°16.786 2°51.306 -999 3.30384 32.350461 32.047459
2009-03-26 08:40:23 51°16.783 2°51.31 -999 3.302286 32.333599 32.186755
2009-03-26 08:40:29 51°16.778 2°51.314 -999 3.303529 32.347089 32.047459
2009-03-26 08:40:34 51°16.774 2°51.317 -999 3.304254 32.354958 31.768866
2009-03-26 08:40:38 51°16.771 2°51.32 -999 3.303529 32.346214 31.768866
2009-03-26 08:40:43 51°16.767 2°51.324 -999 3.30415 32.352084 31.699218
2009-03-26 08:40:49 51°16.762 2°51.328 -999 3.30415 32.352084 31.699218
2009-03-26 08:40:54 51°16.758 2°51.331 -999 3.303943 32.349836 31.62957
2009-03-26 08:40:58 51°16.755 2°51.333 -999 3.304254 32.352333 31.80369
2009-03-26 08:41:03 51°16.75 2°51.336 -999 3.304254 32.352333 31.664394
2009-03-26 08:41:09 51°16.746 2°51.34 -999 3.303839 32.347837 31.768866
2009-03-26 08:41:14 51°16.741 2°51.343 -999 3.303943 32.348086 31.873339
2009-03-26 08:41:18 51°16.738 2°51.345 -999 3.303943 32.348086 31.873339
2009-03-26 08:41:23 51°16.734 2°51.348 -999 3.303736 32.345838 31.80369
2009-03-26 08:41:29 51°16.729 2°51.351 -999 3.305082 32.359577 31.734042
2009-03-26 08:41:34 51°16.725 2°51.354 -999 3.305289 32.361825 31.838514
2009-03-26 08:41:38 51°16.722 2°51.356 -999 3.304772 32.356204 32.047459
2009-03-26 08:41:43 51°16.718 2°51.358 -999 3.303529 32.34184 31.699218
2009-03-26 08:41:48 51°16.713 2°51.361 -999 3.303529 32.34184 31.699218
2009-03-26 08:41:54 51°16.709 2°51.363 -999 3.302907 32.334222 31.942987
2009-03-26 08:41:58 51°16.705 2°51.365 -999 3.306325 32.371316 31.838514
2009-03-26 08:42:03 51°16.701 2°51.368 -999 3.306014 32.367068 31.80369
2009-03-26 08:42:09 51°16.696 2°51.37 -999 3.306014 32.367068 31.62957
2009-03-26 08:42:13 51°16.693 2°51.372 -999 3.305393 32.359449 31.699218
2009-03-26 08:42:19 51°16.688 2°51.374 -999 3.305393 32.359449 31.699218
2009-03-26 08:42:23 51°16.685 2°51.375 -999 3.306118 32.367317 31.594746
2009-03-26 08:42:29 51°16.68 2°51.378 -999 3.306221 32.367566 31.734042
2009-03-26 08:42:34 51°16.676 2°51.38 -999 3.304668 32.349831 31.838514
2009-03-26 08:42:38 51°16.672 2°51.381 -999 3.305911 32.363319 31.734042
2009-03-26 08:42:43 51°16.668 2°51.383 -999 3.305911 32.362444 31.838514
2009-03-26 08:42:49 51°16.663 2°51.385 -999 3.305911 32.362444 31.838514
2009-03-26 08:42:53 51°16.66 2°51.386 -999 3.304875 32.351204 31.490274
2009-03-26 08:42:59 51°16.655 2°51.388 -999 3.305393 32.356824 31.490274
2009-03-26 08:43:03 51°16.651 2°51.39 -999 3.305703 32.359321 31.699218
2009-03-26 08:43:09 51°16.646 2°51.391 -999 3.305807 32.360445 31.838514
2009-03-26 08:43:14 51°16.642 2°51.393 -999 3.305703 32.358446 31.873339
2009-03-26 08:43:18 51°16.638 2°51.393 -999 3.305703 32.358446 31.873339
2009-03-26 08:43:24 51°16.633 2°51.395 -999 3.305186 32.352827 31.838514
2009-03-26 08:43:29 51°16.629 2°51.396 -999 3.304564 32.345209 31.838514
2009-03-26 08:43:34 51°16.624 2°51.398 -999 3.304046 32.33959 32.012635
2009-03-26 08:43:38 51°16.621 2°51.399 -999 3.303322 32.33085 32.012635
2009-03-26 08:43:43 51°16.616 2°51.4 -999 3.302804 32.324357 31.942987
2009-03-26 08:43:49 51°16.611 2°51.402 -999 3.302804 32.324357 31.942987
2009-03-26 08:43:54 51°16.607 2°51.403 -999 3.304461 32.343211 32.047459
2009-03-26 08:43:58 51°16.603 2°51.404 -999 3.304564 32.344335 31.873339
2009-03-26 08:44:03 51°16.599 2°51.405 -999 3.303943 32.337592 31.942987
2009-03-26 08:44:09 51°16.593 2°51.407 -999 3.304254 32.340089 31.768866
2009-03-26 08:44:14 51°16.589 2°51.408 -999 3.304668 32.34371 31.664394
2009-03-26 08:44:18 51°16.585 2°51.409 -999 3.304668 32.34371 31.664394
2009-03-26 08:44:23 51°16.581 2°51.41 -999 3.304357 32.339464 31.490274
2009-03-26 08:44:29 51°16.576 2°51.411 -999 3.304461 32.339714 31.594746
2009-03-26 08:44:33 51°16.572 2°51.412 -999 3.304046 32.335219 31.699218
2009-03-26 08:44:38 51°16.568 2°51.413 -999 3.303839 32.332972 31.768866
2009-03-26 08:44:43 51°16.563 2°51.414 -999 3.303943 32.333222 31.873339
2009-03-26 08:44:49 51°16.558 2°51.414 -999 3.303943 32.333222 31.873339
2009-03-26 08:44:53 51°16.554 2°51.415 -999 3.304254 32.335718 31.734042
2009-03-26 08:44:58 51°16.55 2°51.415 -999 3.304668 32.340213 31.664394
2009-03-26 08:45:03 51°16.545 2°51.416 -999 3.303839 32.33035 31.385802
2009-03-26 08:45:09 51°16.54 2°51.416 -999 3.303632 32.328103 31.176857
2009-03-26 08:45:14 51°16.536 2°51.416 -999 3.302907 32.319365 31.350978
2009-03-26 08:45:18 51°16.533 2°51.416 -999 3.302907 32.319365 31.350978
2009-03-26 08:45:23 51°16.528 2°51.416 -999 3.303218 32.321862 31.385802
2009-03-26 08:45:29 51°16.523 2°51.416 -999 3.304254 32.332223 31.525098
2009-03-26 08:45:34 51°16.519 2°51.416 -999 3.302907 32.317618 31.490274
2009-03-26 08:45:38 51°16.516 2°51.415 -999 3.304357 32.332473 31.594746
2009-03-26 08:45:43 51°16.512 2°51.414 -999 3.302079 32.307758 31.699218
2009-03-26 08:45:49 51°16.506 2°51.414 -999 3.302079 32.307758 31.699218
2009-03-26 08:45:54 51°16.502 2°51.413 -999 3.304253 32.331349 31.45545
2009-03-26 08:45:58 51°16.499 2°51.412 -999 3.302493 32.311378 31.734042
2009-03-26 08:46:03 51°16.495 2°51.41 -999 3.303011 32.316122 31.385802
2009-03-26 08:46:09 51°16.49 2°51.408 -999 3.303632 32.322862 31.316154
2009-03-26 08:46:14 51°16.486 2°51.407 -999 3.303632 32.321988 31.664394
2009-03-26 08:46:18 51°16.482 2°51.405 -999 3.303632 32.321988 31.664394
2009-03-26 08:46:23 51°16.478 2°51.402 -999 3.304564 32.331224 31.420626
2009-03-26 08:46:29 51°16.474 2°51.399 -999 3.303425 32.318868 31.45545
2009-03-26 08:46:34 51°16.47 2°51.397 -999 3.300215 32.28405 31.420626
2009-03-26 08:46:38 51°16.467 2°51.394 -999 3.304564 32.331224 31.490274
2009-03-26 08:46:43 51°16.462 2°51.391 -999 3.303321 32.317745 31.490274
2009-03-26 08:46:49 51°16.458 2°51.387 -999 3.303321 32.317745 31.490274
2009-03-26 08:46:53 51°16.454 2°51.385 -999 3.303736 32.322238 31.385802
2009-03-26 08:46:59 51°16.45 2°51.381 -999 3.303218 32.315749 31.28133
2009-03-26 08:47:03 51°16.446 2°51.378 -999 3.301354 32.295532 31.559922
2009-03-26 08:47:08 51°16.443 2°51.374 -999 3.303943 32.322738 31.62957
2009-03-26 08:47:14 51°16.438 2°51.37 -999 3.303321 32.315999 31.664394
2009-03-26 08:47:18 51°16.435 2°51.367 -999 3.303321 32.315999 31.664394
2009-03-26 08:47:23 51°16.431 2°51.364 -999 3.30415 32.324111 31.664394
2009-03-26 08:47:29 51°16.426 2°51.359 -999 3.301872 32.299402 31.490274
2009-03-26 08:47:34 51°16.422 2°51.356 -999 3.301354 32.293786 31.734042
2009-03-26 08:47:38 51°16.418 2°51.353 -999 3.30125 32.292663 32.117107
2009-03-26 08:47:44 51°16.413 2°51.349 -999 3.302907 32.310633 32.047459
2009-03-26 08:47:49 51°16.409 2°51.346 -999 3.302907 32.310633 32.047459
2009-03-26 08:47:54 51°16.405 2°51.343 -999 3.300111 32.28031 32.012635
2009-03-26 08:47:58 51°16.401 2°51.341 -999 3.304564 32.328604 32.082283
2009-03-26 08:48:03 51°16.397 2°51.338 -999 3.301043 32.289545 32.047459
2009-03-26 08:48:09 51°16.391 2°51.335 -999 3.303114 32.311133 32.186755
2009-03-26 08:48:14 51°16.387 2°51.333 -999 3.301664 32.29541 32.082283
2009-03-26 08:48:18 51°16.383 2°51.331 -999 3.301664 32.29541 32.082283
2009-03-26 08:48:23 51°16.378 2°51.329 -999 3.301354 32.291169 32.430523
2009-03-26 08:48:29 51°16.373 2°51.326 -999 3.305703 32.338338 32.604644
2009-03-26 08:48:34 51°16.368 2°51.323 -999 3.301147 32.288923 32.604644
2009-03-26 08:48:38 51°16.365 2°51.322 -999 3.305185 32.331849 32.604644
2009-03-26 08:48:43 51°16.361 2°51.319 -999 3.301043 32.286928 32.360875
2009-03-26 08:48:49 51°16.355 2°51.316 -999 3.301043 32.286928 32.360875
2009-03-26 08:48:54 51°16.351 2°51.313 -999 3.306428 32.344453 32.221579
2009-03-26 08:48:58 51°16.347 2°51.311 -999 3.302389 32.299781 32.117107
2009-03-26 08:49:03 51°16.343 2°51.308 -999 3.2998 32.270838 32.012635
2009-03-26 08:49:09 51°16.338 2°51.304 -999 3.301457 32.287931 32.012635
2009-03-26 08:49:14 51°16.334 2°51.301 -999 3.30125 32.285685 32.012635
2009-03-26 08:49:18 51°16.331 2°51.298 -999 3.30125 32.285685 32.012635
2009-03-26 08:49:23 51°16.327 2°51.295 -999 3.303218 32.306146 31.873339
2009-03-26 08:49:29 51°16.323 2°51.29 -999 3.303736 32.311761 31.734042
2009-03-26 08:49:34 51°16.319 2°51.286 -999 3.304668 32.320994 31.942987
2009-03-26 08:49:38 51°16.316 2°51.283 -999 3.303321 32.306397 31.734042
2009-03-26 08:49:43 51°16.312 2°51.279 -999 3.301354 32.285064 32.012635
2009-03-26 08:49:49 51°16.308 2°51.274 -999 3.301354 32.285064 32.012635
2009-03-26 08:49:54 51°16.305 2°51.269 -999 3.30415 32.31538 32.151931
2009-03-26 08:49:58 51°16.302 2°51.265 -999 3.303114 32.304151 31.80369
2009-03-26 08:50:03 51°16.299 2°51.26 -999 3.300629 32.277204 31.734042
2009-03-26 08:50:09 51°16.295 2°51.254 -999 3.300732 32.278327 31.699218
2009-03-26 08:50:14 51°16.292 2°51.249 -999 3.300629 32.277204 31.908163
2009-03-26 08:50:18 51°16.29 2°51.245 -999 3.300629 32.277204 31.908163
2009-03-26 08:50:24 51°16.286 2°51.238 -999 3.301975 32.290928 31.838514
2009-03-26 08:50:29 51°16.284 2°51.232 -999 3.304771 32.321244 31.873339
2009-03-26 08:50:34 51°16.281 2°51.226 -999 3.304564 32.318998 31.838514
2009-03-26 08:50:38 51°16.279 2°51.222 -999 3.30446 32.318748 31.977811
2009-03-26 08:50:43 51°16.277 2°51.216 -999 3.30446 32.318748 32.151931
2009-03-26 08:50:49 51°16.275 2°51.208 -999 3.30446 32.318748 32.151931
2009-03-26 08:50:54 51°16.273 2°51.202 -999 3.304668 32.320994 32.047459
2009-03-26 08:50:58 51°16.271 2°51.197 -999 3.303736 32.310888 31.873339
2009-03-26 08:51:03 51°16.269 2°51.191 -999 3.302079 32.292923 31.873339
2009-03-26 08:51:09 51°16.267 2°51.184 -999 3.305082 32.324613 31.908163
2009-03-26 08:51:14 51°16.266 2°51.177 -999 3.305392 32.328855 31.80369
2009-03-26 08:51:19 51°16.264 2°51.171 -999 3.305392 32.328855 31.80369
2009-03-26 08:51:23 51°16.262 2°51.166 -999 3.305496 32.329105 32.012635
2009-03-26 08:51:28 51°16.261 2°51.16 -999 3.305392 32.327982 32.674292
2009-03-26 08:51:34 51°16.259 2°51.152 -999 3.304668 32.320121 33.161829
2009-03-26 08:51:38 51°16.257 2°51.147 -999 3.305289 32.327732 32.848412
2009-03-26 08:51:43 51°16.256 2°51.141 -999 3.305703 32.332224 32.709116
2009-03-26 08:51:49 51°16.253 2°51.134 -999 3.305703 32.332224 32.709116
2009-03-26 08:51:54 51°16.251 2°51.128 -999 3.306532 32.340334 32.500171
2009-03-26 08:51:59 51°16.25 2°51.122 -999 3.306635 32.341457 32.256403
2009-03-26 08:52:04 51°16.248 2°51.116 -999 3.306532 32.339461 32.360875
2009-03-26 08:52:09 51°16.245 2°51.11 -999 3.305807 32.3316 32.256403
2009-03-26 08:52:14 51°16.243 2°51.104 -999 3.306946 32.343079 32.117107
2009-03-26 08:52:18 51°16.241 2°51.099 -999 3.306946 32.343079 32.117107
2009-03-26 08:52:23 51°16.239 2°51.093 -999 3.306739 32.340833 32.186755
2009-03-26 08:52:29 51°16.236 2°51.086 -999 3.306221 32.335218 32.082283
2009-03-26 08:52:34 51°16.234 2°51.08 -999 3.305807 32.330727 31.734042
2009-03-26 08:52:38 51°16.232 2°51.075 -999 3.306014 32.332099 31.699218
2009-03-26 08:52:42 51°16.23 2°51.071 -999 3.306635 32.338837 31.699218
2009-03-26 08:52:49 51°16.227 2°51.063 -999 3.306635 32.338837 31.699218
2009-03-26 08:52:54 51°16.224 2°51.058 -999 3.306946 32.341332 31.873339
2009-03-26 08:52:58 51°16.222 2°51.053 -999 3.307049 32.342455 31.942987
2009-03-26 08:53:03 51°16.218 2°51.048 -999 3.307257 32.344701 32.012635
2009-03-26 08:53:09 51°16.215 2°51.041 -999 3.306946 32.341332 32.186755
2009-03-26 08:53:14 51°16.212 2°51.036 -999 3.306739 32.339086 32.186755
2009-03-26 08:53:19 51°16.209 2°51.03 -999 3.306739 32.339086 32.186755
2009-03-26 08:53:23 51°16.207 2°51.026 -999 3.306428 32.336591 32.256403
2009-03-26 08:53:29 51°16.203 2°51.019 -999 3.306117 32.332349 32.534996
2009-03-26 08:53:34 51°16.2 2°51.014 -999 3.303839 32.307648 32.639468
2009-03-26 08:53:38 51°16.197 2°51.01 -999 3.305496 32.325612 32.74394
2009-03-26 08:53:43 51°16.194 2°51.005 -999 3.306946 32.342205 32.395699
2009-03-26 08:53:49 51°16.191 2°50.999 -999 3.306946 32.342205 32.395699
2009-03-26 08:53:53 51°16.188 2°50.995 -999 3.306117 32.332349 32.151931
2009-03-26 08:53:59 51°16.184 2°50.989 -999 3.305703 32.327858 32.186755
2009-03-26 08:54:04 51°16.181 2°50.984 -999 3.306324 32.334595 32.151931
2009-03-26 08:54:09 51°16.177 2°50.979 -999 3.307464 32.346073 32.047459
2009-03-26 08:54:14 51°16.174 2°50.974 -999 3.306014 32.330353 31.977811
2009-03-26 08:54:18 51°16.172 2°50.97 -999 3.306014 32.330353 31.977811
2009-03-26 08:54:23 51°16.168 2°50.965 -999 3.307774 32.349442 31.977811
2009-03-26 08:54:29 51°16.165 2°50.959 -999 3.304046 32.308148 32.291227
2009-03-26 08:54:34 51°16.161 2°50.955 -999 3.306739 32.338213 32.534996
2009-03-26 08:54:38 51°16.159 2°50.951 -999 3.305496 32.324739 32.778764
2009-03-26 08:54:44 51°16.155 2°50.945 -999 3.305289 32.322493 32.74394
2009-03-26 08:54:49 51°16.152 2°50.94 -999 3.305289 32.322493 32.74394
2009-03-26 08:54:54 51°16.149 2°50.935 -999 3.303011 32.298666 32.883236
2009-03-26 08:54:58 51°16.146 2°50.931 -999 3.302907 32.297543 32.952884
2009-03-26 08:55:03 51°16.144 2°50.926 -999 3.303218 32.300911 33.127004
2009-03-26 08:55:09 51°16.14 2°50.92 -999 3.301354 32.280704 32.91806
2009-03-26 08:55:14 51°16.137 2°50.915 -999 3.303839 32.307648 32.813588
2009-03-26 08:55:18 51°16.135 2°50.911 -999 3.303839 32.307648 32.813588
2009-03-26 08:55:23 51°16.132 2°50.906 -999 3.302182 32.289685 32.848412
2009-03-26 08:55:29 51°16.129 2°50.9 -999 3.300111 32.267233 32.500171
2009-03-26 08:55:34 51°16.126 2°50.895 -999 3.305392 32.324489 32.465347
2009-03-26 08:55:39 51°16.124 2°50.89 -999 3.303839 32.306775 32.534996
2009-03-26 08:55:43 51°16.121 2°50.886 -999 3.303943 32.307898 32.709116
2009-03-26 08:55:48 51°16.119 2°50.88 -999 3.303943 32.307898 32.709116
2009-03-26 08:55:54 51°16.116 2°50.874 -999 3.304253 32.310393 32.674292
2009-03-26 08:55:58 51°16.114 2°50.869 -999 3.303528 32.302535 32.709116
2009-03-26 08:56:03 51°16.111 2°50.864 -999 3.306946 32.340459 32.74394
2009-03-26 08:56:09 51°16.109 2°50.857 -999 3.305703 32.326112 32.326051
2009-03-26 08:56:14 51°16.107 2°50.851 -999 3.306635 32.335343 32.047459
2009-03-26 08:56:19 51°16.104 2°50.846 -999 3.306635 32.335343 32.047459
2009-03-26 08:56:24 51°16.102 2°50.84 -999 3.306324 32.331975 31.977811
2009-03-26 08:56:28 51°16.1 2°50.836 -999 3.307878 32.347944 31.80369
2009-03-26 08:56:34 51°16.097 2°50.829 -999 3.307671 32.344825 31.977811
2009-03-26 08:56:38 51°16.096 2°50.824 -999 3.306946 32.336965 32.395699